<?xml version="1.0" encoding="UTF-8" standalone="no" ?>
<gpx xmlns="http://www.topografix.com/GPX/1/1" xmlns:xsi="http://www.w3.org/2001/XMLSchema-instance" xsi:schemaLocation="http://www.topografix.com/GPX/1/1 http://www.topografix.com/GPX/1/1/gpx.xsd" version="1.1" creator="VisuGPX - https://www.visugpx.com">
  <metadata>
    <name>OMS CHENOVE Marche du vendredi 08 juin 2012</name>
    <desc><![CDATA[Ballade autour de Chenove]]></desc>
  </metadata>
  <trk>
    <name><![CDATA[OMS CHENOVE Marche du vendredi 08 juin 2012_1]]></name>
    <trkseg>
      <trkpt lat="47.2944" lon="5.00353">
        <ele>268.592</ele>
        <time>2012-06-08T08:06:21Z</time>
      </trkpt>
      <trkpt lat="47.29448" lon="5.00362">
        <ele>259.261</ele>
        <time>2012-06-08T08:06:32Z</time>
      </trkpt>
      <trkpt lat="47.29458" lon="5.00367">
        <ele>254.313</ele>
        <time>2012-06-08T08:06:43Z</time>
      </trkpt>
      <trkpt lat="47.29467" lon="5.00372">
        <ele>256.006</ele>
        <time>2012-06-08T08:06:54Z</time>
      </trkpt>
      <trkpt lat="47.2947" lon="5.00358">
        <ele>254.172</ele>
        <time>2012-06-08T08:07:05Z</time>
      </trkpt>
      <trkpt lat="47.29467" lon="5.00347">
        <ele>258.706</ele>
        <time>2012-06-08T08:07:16Z</time>
      </trkpt>
      <trkpt lat="47.2947" lon="5.00333">
        <ele>258.193</ele>
        <time>2012-06-08T08:07:27Z</time>
      </trkpt>
      <trkpt lat="47.29473" lon="5.00325">
        <ele>261.612</ele>
        <time>2012-06-08T08:07:38Z</time>
      </trkpt>
      <trkpt lat="47.29473" lon="5.00312">
        <ele>261.229</ele>
        <time>2012-06-08T08:07:49Z</time>
      </trkpt>
      <trkpt lat="47.29472" lon="5.00303">
        <ele>262.907</ele>
        <time>2012-06-08T08:08:00Z</time>
      </trkpt>
      <trkpt lat="47.29473" lon="5.003">
        <ele>267.522</ele>
        <time>2012-06-08T08:08:11Z</time>
      </trkpt>
      <trkpt lat="47.29472" lon="5.0029">
        <ele>275.755</ele>
        <time>2012-06-08T08:08:22Z</time>
      </trkpt>
      <trkpt lat="47.29482" lon="5.0027">
        <ele>272.673</ele>
        <time>2012-06-08T08:08:33Z</time>
      </trkpt>
      <trkpt lat="47.29488" lon="5.0026">
        <ele>271.839</ele>
        <time>2012-06-08T08:08:44Z</time>
      </trkpt>
      <trkpt lat="47.29497" lon="5.00242">
        <ele>272.566</ele>
        <time>2012-06-08T08:08:55Z</time>
      </trkpt>
      <trkpt lat="47.29503" lon="5.00228">
        <ele>271.259</ele>
        <time>2012-06-08T08:09:06Z</time>
      </trkpt>
      <trkpt lat="47.29532" lon="5.00208">
        <ele>280.483</ele>
        <time>2012-06-08T08:09:17Z</time>
      </trkpt>
      <trkpt lat="47.29542" lon="5.00193">
        <ele>278.345</ele>
        <time>2012-06-08T08:09:28Z</time>
      </trkpt>
      <trkpt lat="47.29545" lon="5.00183">
        <ele>275.149</ele>
        <time>2012-06-08T08:09:39Z</time>
      </trkpt>
      <trkpt lat="47.2955" lon="5.00155">
        <ele>269.266</ele>
        <time>2012-06-08T08:09:50Z</time>
      </trkpt>
      <trkpt lat="47.29555" lon="5.00138">
        <ele>267.548</ele>
        <time>2012-06-08T08:10:01Z</time>
      </trkpt>
      <trkpt lat="47.2956" lon="5.00113">
        <ele>264.221</ele>
        <time>2012-06-08T08:10:12Z</time>
      </trkpt>
      <trkpt lat="47.29573" lon="5.00088">
        <ele>266.146</ele>
        <time>2012-06-08T08:10:23Z</time>
      </trkpt>
      <trkpt lat="47.29602" lon="5.00077">
        <ele>273.396</ele>
        <time>2012-06-08T08:10:34Z</time>
      </trkpt>
      <trkpt lat="47.29618" lon="5.0007">
        <ele>276.941</ele>
        <time>2012-06-08T08:10:45Z</time>
      </trkpt>
      <trkpt lat="47.29633" lon="5.00068">
        <ele>275.827</ele>
        <time>2012-06-08T08:10:56Z</time>
      </trkpt>
      <trkpt lat="47.29647" lon="5.00068">
        <ele>278.732</ele>
        <time>2012-06-08T08:11:07Z</time>
      </trkpt>
      <trkpt lat="47.29663" lon="5.00072">
        <ele>279.788</ele>
        <time>2012-06-08T08:11:18Z</time>
      </trkpt>
      <trkpt lat="47.29687" lon="5.0007">
        <ele>285.888</ele>
        <time>2012-06-08T08:11:29Z</time>
      </trkpt>
      <trkpt lat="47.29703" lon="5.00075">
        <ele>288.768</ele>
        <time>2012-06-08T08:11:40Z</time>
      </trkpt>
      <trkpt lat="47.29717" lon="5.00075">
        <ele>291.15</ele>
        <time>2012-06-08T08:11:51Z</time>
      </trkpt>
      <trkpt lat="47.29737" lon="5.00078">
        <ele>294.654</ele>
        <time>2012-06-08T08:12:02Z</time>
      </trkpt>
      <trkpt lat="47.29753" lon="5.00077">
        <ele>294.739</ele>
        <time>2012-06-08T08:12:13Z</time>
      </trkpt>
      <trkpt lat="47.2977" lon="5.00085">
        <ele>297.964</ele>
        <time>2012-06-08T08:12:24Z</time>
      </trkpt>
      <trkpt lat="47.29782" lon="5.0009">
        <ele>299.949</ele>
        <time>2012-06-08T08:12:35Z</time>
      </trkpt>
      <trkpt lat="47.29785" lon="5.00092">
        <ele>298.557</ele>
        <time>2012-06-08T08:12:46Z</time>
      </trkpt>
      <trkpt lat="47.29802" lon="5.00102">
        <ele>296.104</ele>
        <time>2012-06-08T08:12:57Z</time>
      </trkpt>
      <trkpt lat="47.29812" lon="5.00103">
        <ele>294.724</ele>
        <time>2012-06-08T08:13:08Z</time>
      </trkpt>
      <trkpt lat="47.29828" lon="5.0011">
        <ele>295.846</ele>
        <time>2012-06-08T08:13:19Z</time>
      </trkpt>
      <trkpt lat="47.29845" lon="5.00118">
        <ele>298.041</ele>
        <time>2012-06-08T08:13:30Z</time>
      </trkpt>
      <trkpt lat="47.29858" lon="5.00123">
        <ele>298.554</ele>
        <time>2012-06-08T08:13:41Z</time>
      </trkpt>
      <trkpt lat="47.29868" lon="5.00127">
        <ele>297.009</ele>
        <time>2012-06-08T08:13:52Z</time>
      </trkpt>
      <trkpt lat="47.29875" lon="5.00128">
        <ele>296.747</ele>
        <time>2012-06-08T08:14:03Z</time>
      </trkpt>
      <trkpt lat="47.29885" lon="5.00132">
        <ele>295.581</ele>
        <time>2012-06-08T08:14:14Z</time>
      </trkpt>
      <trkpt lat="47.29897" lon="5.00128">
        <ele>297.213</ele>
        <time>2012-06-08T08:14:25Z</time>
      </trkpt>
      <trkpt lat="47.29912" lon="5.00125">
        <ele>296.306</ele>
        <time>2012-06-08T08:14:36Z</time>
      </trkpt>
      <trkpt lat="47.2992" lon="5.00125">
        <ele>296.243</ele>
        <time>2012-06-08T08:14:47Z</time>
      </trkpt>
      <trkpt lat="47.29947" lon="5.00123">
        <ele>298.558</ele>
        <time>2012-06-08T08:14:58Z</time>
      </trkpt>
      <trkpt lat="47.29958" lon="5.00122">
        <ele>293.396</ele>
        <time>2012-06-08T08:15:09Z</time>
      </trkpt>
      <trkpt lat="47.29963" lon="5.00122">
        <ele>294.108</ele>
        <time>2012-06-08T08:15:20Z</time>
      </trkpt>
      <trkpt lat="47.29978" lon="5.00125">
        <ele>293.575</ele>
        <time>2012-06-08T08:15:31Z</time>
      </trkpt>
      <trkpt lat="47.29988" lon="5.00127">
        <ele>292.85</ele>
        <time>2012-06-08T08:15:42Z</time>
      </trkpt>
      <trkpt lat="47.29988" lon="5.00127">
        <ele>291.023</ele>
        <time>2012-06-08T08:15:53Z</time>
      </trkpt>
      <trkpt lat="47.29998" lon="5.0013">
        <ele>289.273</ele>
        <time>2012-06-08T08:16:04Z</time>
      </trkpt>
      <trkpt lat="47.30005" lon="5.00135">
        <ele>292.729</ele>
        <time>2012-06-08T08:16:15Z</time>
      </trkpt>
      <trkpt lat="47.30013" lon="5.00148">
        <ele>288.68</ele>
        <time>2012-06-08T08:16:26Z</time>
      </trkpt>
      <trkpt lat="47.30028" lon="5.00152">
        <ele>288.647</ele>
        <time>2012-06-08T08:16:37Z</time>
      </trkpt>
      <trkpt lat="47.30033" lon="5.00153">
        <ele>292.885</ele>
        <time>2012-06-08T08:16:48Z</time>
      </trkpt>
      <trkpt lat="47.30035" lon="5.0016">
        <ele>292.845</ele>
        <time>2012-06-08T08:16:59Z</time>
      </trkpt>
      <trkpt lat="47.30045" lon="5.00173">
        <ele>295.542</ele>
        <time>2012-06-08T08:17:10Z</time>
      </trkpt>
      <trkpt lat="47.30057" lon="5.0018">
        <ele>298.728</ele>
        <time>2012-06-08T08:17:21Z</time>
      </trkpt>
      <trkpt lat="47.30065" lon="5.00195">
        <ele>297.604</ele>
        <time>2012-06-08T08:17:32Z</time>
      </trkpt>
      <trkpt lat="47.3006" lon="5.00207">
        <ele>296.834</ele>
        <time>2012-06-08T08:17:43Z</time>
      </trkpt>
      <trkpt lat="47.30063" lon="5.00215">
        <ele>295.861</ele>
        <time>2012-06-08T08:17:54Z</time>
      </trkpt>
      <trkpt lat="47.30077" lon="5.0022">
        <ele>299.539</ele>
        <time>2012-06-08T08:18:05Z</time>
      </trkpt>
      <trkpt lat="47.30088" lon="5.00225">
        <ele>302.428</ele>
        <time>2012-06-08T08:18:16Z</time>
      </trkpt>
      <trkpt lat="47.301" lon="5.0023">
        <ele>304.661</ele>
        <time>2012-06-08T08:18:27Z</time>
      </trkpt>
      <trkpt lat="47.30115" lon="5.00238">
        <ele>303.786</ele>
        <time>2012-06-08T08:18:38Z</time>
      </trkpt>
      <trkpt lat="47.30135" lon="5.00253">
        <ele>303.877</ele>
        <time>2012-06-08T08:18:49Z</time>
      </trkpt>
      <trkpt lat="47.3013" lon="5.0027">
        <ele>300.425</ele>
        <time>2012-06-08T08:19:00Z</time>
      </trkpt>
      <trkpt lat="47.3014" lon="5.00275">
        <ele>299.341</ele>
        <time>2012-06-08T08:19:11Z</time>
      </trkpt>
      <trkpt lat="47.3016" lon="5.00275">
        <ele>296.748</ele>
        <time>2012-06-08T08:19:22Z</time>
      </trkpt>
      <trkpt lat="47.30167" lon="5.00275">
        <ele>300.26</ele>
        <time>2012-06-08T08:19:33Z</time>
      </trkpt>
      <trkpt lat="47.30177" lon="5.00275">
        <ele>301.997</ele>
        <time>2012-06-08T08:19:44Z</time>
      </trkpt>
      <trkpt lat="47.30178" lon="5.00273">
        <ele>304.497</ele>
        <time>2012-06-08T08:19:55Z</time>
      </trkpt>
      <trkpt lat="47.30192" lon="5.00278">
        <ele>299.677</ele>
        <time>2012-06-08T08:20:06Z</time>
      </trkpt>
      <trkpt lat="47.30192" lon="5.00278">
        <ele>299.115</ele>
        <time>2012-06-08T08:20:17Z</time>
      </trkpt>
      <trkpt lat="47.30225" lon="5.00278">
        <ele>298.711</ele>
        <time>2012-06-08T08:20:28Z</time>
      </trkpt>
      <trkpt lat="47.3024" lon="5.00278">
        <ele>305.571</ele>
        <time>2012-06-08T08:20:39Z</time>
      </trkpt>
      <trkpt lat="47.30243" lon="5.00277">
        <ele>306.332</ele>
        <time>2012-06-08T08:20:50Z</time>
      </trkpt>
      <trkpt lat="47.30263" lon="5.00278">
        <ele>306.285</ele>
        <time>2012-06-08T08:21:01Z</time>
      </trkpt>
      <trkpt lat="47.30272" lon="5.00285">
        <ele>304.603</ele>
        <time>2012-06-08T08:21:12Z</time>
      </trkpt>
      <trkpt lat="47.3028" lon="5.00285">
        <ele>302.902</ele>
        <time>2012-06-08T08:21:23Z</time>
      </trkpt>
      <trkpt lat="47.30287" lon="5.0029">
        <ele>299.352</ele>
        <time>2012-06-08T08:21:34Z</time>
      </trkpt>
      <trkpt lat="47.30295" lon="5.0029">
        <ele>297.728</ele>
        <time>2012-06-08T08:21:45Z</time>
      </trkpt>
      <trkpt lat="47.30318" lon="5.00282">
        <ele>296.316</ele>
        <time>2012-06-08T08:21:56Z</time>
      </trkpt>
      <trkpt lat="47.30328" lon="5.00287">
        <ele>293.101</ele>
        <time>2012-06-08T08:22:07Z</time>
      </trkpt>
      <trkpt lat="47.30345" lon="5.00278">
        <ele>294.653</ele>
        <time>2012-06-08T08:22:18Z</time>
      </trkpt>
      <trkpt lat="47.30355" lon="5.00278">
        <ele>294.182</ele>
        <time>2012-06-08T08:22:29Z</time>
      </trkpt>
      <trkpt lat="47.30367" lon="5.0027">
        <ele>294.144</ele>
        <time>2012-06-08T08:22:40Z</time>
      </trkpt>
      <trkpt lat="47.3038" lon="5.00263">
        <ele>296.016</ele>
        <time>2012-06-08T08:22:51Z</time>
      </trkpt>
      <trkpt lat="47.30393" lon="5.00253">
        <ele>301.537</ele>
        <time>2012-06-08T08:23:02Z</time>
      </trkpt>
      <trkpt lat="47.30398" lon="5.00252">
        <ele>302.751</ele>
        <time>2012-06-08T08:23:13Z</time>
      </trkpt>
      <trkpt lat="47.30398" lon="5.00252">
        <ele>302.751</ele>
        <time>2012-06-08T08:23:24Z</time>
      </trkpt>
      <trkpt lat="47.30403" lon="5.0025">
        <ele>305.013</ele>
        <time>2012-06-08T08:23:35Z</time>
      </trkpt>
      <trkpt lat="47.30407" lon="5.00248">
        <ele>304.458</ele>
        <time>2012-06-08T08:23:46Z</time>
      </trkpt>
      <trkpt lat="47.30408" lon="5.00248">
        <ele>303.609</ele>
        <time>2012-06-08T08:23:57Z</time>
      </trkpt>
      <trkpt lat="47.3041" lon="5.00248">
        <ele>302.314</ele>
        <time>2012-06-08T08:24:08Z</time>
      </trkpt>
      <trkpt lat="47.3041" lon="5.00248">
        <ele>301.904</ele>
        <time>2012-06-08T08:24:19Z</time>
      </trkpt>
      <trkpt lat="47.3041" lon="5.00248">
        <ele>301.904</ele>
        <time>2012-06-08T08:24:30Z</time>
      </trkpt>
      <trkpt lat="47.3041" lon="5.00248">
        <ele>302.323</ele>
        <time>2012-06-08T08:24:41Z</time>
      </trkpt>
      <trkpt lat="47.3041" lon="5.00248">
        <ele>302.323</ele>
        <time>2012-06-08T08:24:52Z</time>
      </trkpt>
      <trkpt lat="47.30415" lon="5.00247">
        <ele>302.213</ele>
        <time>2012-06-08T08:25:03Z</time>
      </trkpt>
      <trkpt lat="47.30415" lon="5.00247">
        <ele>302.213</ele>
        <time>2012-06-08T08:25:14Z</time>
      </trkpt>
      <trkpt lat="47.30417" lon="5.00245">
        <ele>301.978</ele>
        <time>2012-06-08T08:25:25Z</time>
      </trkpt>
      <trkpt lat="47.30423" lon="5.00243">
        <ele>301.336</ele>
        <time>2012-06-08T08:25:36Z</time>
      </trkpt>
      <trkpt lat="47.30433" lon="5.00238">
        <ele>300.651</ele>
        <time>2012-06-08T08:25:47Z</time>
      </trkpt>
      <trkpt lat="47.30448" lon="5.00235">
        <ele>299.714</ele>
        <time>2012-06-08T08:25:58Z</time>
      </trkpt>
      <trkpt lat="47.30465" lon="5.00232">
        <ele>296.541</ele>
        <time>2012-06-08T08:26:09Z</time>
      </trkpt>
      <trkpt lat="47.30477" lon="5.0023">
        <ele>295.749</ele>
        <time>2012-06-08T08:26:20Z</time>
      </trkpt>
      <trkpt lat="47.3049" lon="5.00227">
        <ele>294.029</ele>
        <time>2012-06-08T08:26:31Z</time>
      </trkpt>
      <trkpt lat="47.30512" lon="5.00218">
        <ele>296.262</ele>
        <time>2012-06-08T08:26:42Z</time>
      </trkpt>
      <trkpt lat="47.3053" lon="5.00213">
        <ele>297.554</ele>
        <time>2012-06-08T08:26:53Z</time>
      </trkpt>
      <trkpt lat="47.3054" lon="5.00212">
        <ele>297.389</ele>
        <time>2012-06-08T08:27:04Z</time>
      </trkpt>
      <trkpt lat="47.30553" lon="5.00208">
        <ele>298.662</ele>
        <time>2012-06-08T08:27:15Z</time>
      </trkpt>
      <trkpt lat="47.30578" lon="5.00203">
        <ele>299.475</ele>
        <time>2012-06-08T08:27:26Z</time>
      </trkpt>
      <trkpt lat="47.30602" lon="5.00198">
        <ele>304.903</ele>
        <time>2012-06-08T08:27:37Z</time>
      </trkpt>
      <trkpt lat="47.30617" lon="5.00195">
        <ele>307.023</ele>
        <time>2012-06-08T08:27:48Z</time>
      </trkpt>
      <trkpt lat="47.30633" lon="5.00195">
        <ele>310.933</ele>
        <time>2012-06-08T08:27:59Z</time>
      </trkpt>
      <trkpt lat="47.30647" lon="5.00195">
        <ele>314.974</ele>
        <time>2012-06-08T08:28:10Z</time>
      </trkpt>
      <trkpt lat="47.30667" lon="5.00198">
        <ele>314.503</ele>
        <time>2012-06-08T08:28:21Z</time>
      </trkpt>
      <trkpt lat="47.30682" lon="5.00202">
        <ele>312.619</ele>
        <time>2012-06-08T08:28:32Z</time>
      </trkpt>
      <trkpt lat="47.30692" lon="5.00203">
        <ele>312.147</ele>
        <time>2012-06-08T08:28:43Z</time>
      </trkpt>
      <trkpt lat="47.30707" lon="5.00208">
        <ele>310.15</ele>
        <time>2012-06-08T08:28:54Z</time>
      </trkpt>
      <trkpt lat="47.30727" lon="5.00212">
        <ele>309.747</ele>
        <time>2012-06-08T08:29:05Z</time>
      </trkpt>
      <trkpt lat="47.30748" lon="5.00215">
        <ele>303.166</ele>
        <time>2012-06-08T08:29:16Z</time>
      </trkpt>
      <trkpt lat="47.30767" lon="5.00212">
        <ele>297.009</ele>
        <time>2012-06-08T08:29:27Z</time>
      </trkpt>
      <trkpt lat="47.30782" lon="5.00208">
        <ele>294.865</ele>
        <time>2012-06-08T08:29:38Z</time>
      </trkpt>
      <trkpt lat="47.30798" lon="5.00202">
        <ele>293.185</ele>
        <time>2012-06-08T08:29:49Z</time>
      </trkpt>
      <trkpt lat="47.30813" lon="5.00195">
        <ele>291.322</ele>
        <time>2012-06-08T08:30:00Z</time>
      </trkpt>
      <trkpt lat="47.3083" lon="5.00192">
        <ele>290.024</ele>
        <time>2012-06-08T08:30:11Z</time>
      </trkpt>
      <trkpt lat="47.30838" lon="5.0019">
        <ele>290.191</ele>
        <time>2012-06-08T08:30:22Z</time>
      </trkpt>
      <trkpt lat="47.30853" lon="5.00185">
        <ele>289.966</ele>
        <time>2012-06-08T08:30:33Z</time>
      </trkpt>
      <trkpt lat="47.30867" lon="5.00182">
        <ele>290.304</ele>
        <time>2012-06-08T08:30:44Z</time>
      </trkpt>
      <trkpt lat="47.30877" lon="5.00178">
        <ele>289.26</ele>
        <time>2012-06-08T08:30:55Z</time>
      </trkpt>
      <trkpt lat="47.30887" lon="5.00173">
        <ele>288.214</ele>
        <time>2012-06-08T08:31:06Z</time>
      </trkpt>
      <trkpt lat="47.30898" lon="5.00162">
        <ele>286.957</ele>
        <time>2012-06-08T08:31:17Z</time>
      </trkpt>
      <trkpt lat="47.30907" lon="5.00158">
        <ele>281.398</ele>
        <time>2012-06-08T08:31:28Z</time>
      </trkpt>
      <trkpt lat="47.30922" lon="5.00147">
        <ele>278.343</ele>
        <time>2012-06-08T08:31:39Z</time>
      </trkpt>
      <trkpt lat="47.3093" lon="5.0014">
        <ele>276.302</ele>
        <time>2012-06-08T08:31:50Z</time>
      </trkpt>
      <trkpt lat="47.3095" lon="5.00135">
        <ele>274.815</ele>
        <time>2012-06-08T08:32:01Z</time>
      </trkpt>
      <trkpt lat="47.30957" lon="5.00135">
        <ele>277.722</ele>
        <time>2012-06-08T08:32:12Z</time>
      </trkpt>
      <trkpt lat="47.30968" lon="5.00143">
        <ele>278.446</ele>
        <time>2012-06-08T08:32:23Z</time>
      </trkpt>
      <trkpt lat="47.30977" lon="5.00148">
        <ele>281.399</ele>
        <time>2012-06-08T08:32:34Z</time>
      </trkpt>
      <trkpt lat="47.30983" lon="5.00158">
        <ele>282.544</ele>
        <time>2012-06-08T08:32:45Z</time>
      </trkpt>
      <trkpt lat="47.30993" lon="5.00173">
        <ele>284.75</ele>
        <time>2012-06-08T08:32:56Z</time>
      </trkpt>
      <trkpt lat="47.31003" lon="5.00188">
        <ele>284.65</ele>
        <time>2012-06-08T08:33:07Z</time>
      </trkpt>
      <trkpt lat="47.3101" lon="5.00202">
        <ele>287.856</ele>
        <time>2012-06-08T08:33:18Z</time>
      </trkpt>
      <trkpt lat="47.31017" lon="5.00218">
        <ele>291.939</ele>
        <time>2012-06-08T08:33:29Z</time>
      </trkpt>
      <trkpt lat="47.31025" lon="5.00228">
        <ele>290.312</ele>
        <time>2012-06-08T08:33:40Z</time>
      </trkpt>
      <trkpt lat="47.31037" lon="5.0025">
        <ele>287.579</ele>
        <time>2012-06-08T08:33:51Z</time>
      </trkpt>
      <trkpt lat="47.31052" lon="5.00273">
        <ele>282.542</ele>
        <time>2012-06-08T08:34:02Z</time>
      </trkpt>
      <trkpt lat="47.31063" lon="5.00285">
        <ele>280.139</ele>
        <time>2012-06-08T08:34:13Z</time>
      </trkpt>
      <trkpt lat="47.31075" lon="5.003">
        <ele>284.832</ele>
        <time>2012-06-08T08:34:24Z</time>
      </trkpt>
      <trkpt lat="47.31082" lon="5.00313">
        <ele>282.658</ele>
        <time>2012-06-08T08:34:35Z</time>
      </trkpt>
      <trkpt lat="47.31088" lon="5.00325">
        <ele>286.819</ele>
        <time>2012-06-08T08:34:46Z</time>
      </trkpt>
      <trkpt lat="47.31102" lon="5.0035">
        <ele>284.234</ele>
        <time>2012-06-08T08:34:57Z</time>
      </trkpt>
      <trkpt lat="47.31113" lon="5.00368">
        <ele>285.525</ele>
        <time>2012-06-08T08:35:08Z</time>
      </trkpt>
      <trkpt lat="47.31117" lon="5.00375">
        <ele>281.759</ele>
        <time>2012-06-08T08:35:19Z</time>
      </trkpt>
      <trkpt lat="47.31125" lon="5.0039">
        <ele>282.592</ele>
        <time>2012-06-08T08:35:30Z</time>
      </trkpt>
      <trkpt lat="47.31135" lon="5.004">
        <ele>283.473</ele>
        <time>2012-06-08T08:35:41Z</time>
      </trkpt>
      <trkpt lat="47.31142" lon="5.00423">
        <ele>279.109</ele>
        <time>2012-06-08T08:35:52Z</time>
      </trkpt>
      <trkpt lat="47.3115" lon="5.00435">
        <ele>274.165</ele>
        <time>2012-06-08T08:36:03Z</time>
      </trkpt>
      <trkpt lat="47.3115" lon="5.00435">
        <ele>274.165</ele>
        <time>2012-06-08T08:36:14Z</time>
      </trkpt>
      <trkpt lat="47.3115" lon="5.00435">
        <ele>274.165</ele>
        <time>2012-06-08T08:36:25Z</time>
      </trkpt>
      <trkpt lat="47.31158" lon="5.00438">
        <ele>273.088</ele>
        <time>2012-06-08T08:36:36Z</time>
      </trkpt>
      <trkpt lat="47.31173" lon="5.00442">
        <ele>271.863</ele>
        <time>2012-06-08T08:36:47Z</time>
      </trkpt>
      <trkpt lat="47.31187" lon="5.00448">
        <ele>268.887</ele>
        <time>2012-06-08T08:36:58Z</time>
      </trkpt>
      <trkpt lat="47.31195" lon="5.00443">
        <ele>269.761</ele>
        <time>2012-06-08T08:37:09Z</time>
      </trkpt>
      <trkpt lat="47.312" lon="5.00445">
        <ele>269.545</ele>
        <time>2012-06-08T08:37:20Z</time>
      </trkpt>
      <trkpt lat="47.31223" lon="5.0043">
        <ele>272.809</ele>
        <time>2012-06-08T08:37:31Z</time>
      </trkpt>
      <trkpt lat="47.31233" lon="5.00422">
        <ele>273.136</ele>
        <time>2012-06-08T08:37:42Z</time>
      </trkpt>
      <trkpt lat="47.31237" lon="5.00415">
        <ele>273.735</ele>
        <time>2012-06-08T08:37:53Z</time>
      </trkpt>
      <trkpt lat="47.3124" lon="5.00408">
        <ele>273.936</ele>
        <time>2012-06-08T08:38:04Z</time>
      </trkpt>
      <trkpt lat="47.31242" lon="5.004">
        <ele>273.964</ele>
        <time>2012-06-08T08:38:15Z</time>
      </trkpt>
      <trkpt lat="47.3124" lon="5.00388">
        <ele>275.243</ele>
        <time>2012-06-08T08:38:26Z</time>
      </trkpt>
      <trkpt lat="47.31238" lon="5.00378">
        <ele>274.833</ele>
        <time>2012-06-08T08:38:37Z</time>
      </trkpt>
      <trkpt lat="47.31242" lon="5.00352">
        <ele>280.177</ele>
        <time>2012-06-08T08:38:48Z</time>
      </trkpt>
      <trkpt lat="47.31242" lon="5.00332">
        <ele>282.012</ele>
        <time>2012-06-08T08:38:59Z</time>
      </trkpt>
      <trkpt lat="47.31248" lon="5.00307">
        <ele>285.892</ele>
        <time>2012-06-08T08:39:10Z</time>
      </trkpt>
      <trkpt lat="47.31245" lon="5.00285">
        <ele>285.779</ele>
        <time>2012-06-08T08:39:21Z</time>
      </trkpt>
      <trkpt lat="47.31242" lon="5.00265">
        <ele>284.472</ele>
        <time>2012-06-08T08:39:32Z</time>
      </trkpt>
      <trkpt lat="47.31238" lon="5.00247">
        <ele>287.203</ele>
        <time>2012-06-08T08:39:43Z</time>
      </trkpt>
      <trkpt lat="47.31242" lon="5.00225">
        <ele>287.087</ele>
        <time>2012-06-08T08:39:54Z</time>
      </trkpt>
      <trkpt lat="47.31247" lon="5.00195">
        <ele>288.708</ele>
        <time>2012-06-08T08:40:05Z</time>
      </trkpt>
      <trkpt lat="47.31248" lon="5.0019">
        <ele>290.059</ele>
        <time>2012-06-08T08:40:16Z</time>
      </trkpt>
      <trkpt lat="47.31262" lon="5.00167">
        <ele>287.834</ele>
        <time>2012-06-08T08:40:27Z</time>
      </trkpt>
      <trkpt lat="47.31272" lon="5.00157">
        <ele>284.323</ele>
        <time>2012-06-08T08:40:38Z</time>
      </trkpt>
      <trkpt lat="47.31272" lon="5.00153">
        <ele>283.258</ele>
        <time>2012-06-08T08:40:49Z</time>
      </trkpt>
      <trkpt lat="47.31272" lon="5.00153">
        <ele>283.258</ele>
        <time>2012-06-08T08:41:00Z</time>
      </trkpt>
      <trkpt lat="47.31272" lon="5.00152">
        <ele>283.766</ele>
        <time>2012-06-08T08:41:11Z</time>
      </trkpt>
      <trkpt lat="47.31273" lon="5.00152">
        <ele>283.374</ele>
        <time>2012-06-08T08:41:22Z</time>
      </trkpt>
      <trkpt lat="47.31273" lon="5.00152">
        <ele>283.374</ele>
        <time>2012-06-08T08:41:33Z</time>
      </trkpt>
      <trkpt lat="47.31273" lon="5.00152">
        <ele>283.126</ele>
        <time>2012-06-08T08:41:44Z</time>
      </trkpt>
      <trkpt lat="47.31273" lon="5.00152">
        <ele>282.631</ele>
        <time>2012-06-08T08:41:55Z</time>
      </trkpt>
      <trkpt lat="47.31273" lon="5.00152">
        <ele>282.631</ele>
        <time>2012-06-08T08:42:06Z</time>
      </trkpt>
      <trkpt lat="47.31273" lon="5.00152">
        <ele>282.631</ele>
        <time>2012-06-08T08:42:17Z</time>
      </trkpt>
      <trkpt lat="47.31275" lon="5.00147">
        <ele>283.466</ele>
        <time>2012-06-08T08:42:28Z</time>
      </trkpt>
      <trkpt lat="47.3128" lon="5.00137">
        <ele>283.551</ele>
        <time>2012-06-08T08:42:39Z</time>
      </trkpt>
      <trkpt lat="47.31283" lon="5.00118">
        <ele>284.951</ele>
        <time>2012-06-08T08:42:50Z</time>
      </trkpt>
      <trkpt lat="47.31292" lon="5.00098">
        <ele>285.493</ele>
        <time>2012-06-08T08:43:01Z</time>
      </trkpt>
      <trkpt lat="47.31297" lon="5.00085">
        <ele>285.04</ele>
        <time>2012-06-08T08:43:12Z</time>
      </trkpt>
      <trkpt lat="47.31305" lon="5.00062">
        <ele>285.565</ele>
        <time>2012-06-08T08:43:23Z</time>
      </trkpt>
      <trkpt lat="47.31308" lon="5.00042">
        <ele>287.959</ele>
        <time>2012-06-08T08:43:34Z</time>
      </trkpt>
      <trkpt lat="47.31312" lon="5.0002">
        <ele>291.047</ele>
        <time>2012-06-08T08:43:45Z</time>
      </trkpt>
      <trkpt lat="47.31307" lon="5.00003">
        <ele>290.973</ele>
        <time>2012-06-08T08:43:56Z</time>
      </trkpt>
      <trkpt lat="47.31302" lon="4.99993">
        <ele>293.809</ele>
        <time>2012-06-08T08:44:07Z</time>
      </trkpt>
      <trkpt lat="47.31303" lon="4.99977">
        <ele>296.334</ele>
        <time>2012-06-08T08:44:18Z</time>
      </trkpt>
      <trkpt lat="47.31307" lon="4.99968">
        <ele>298.777</ele>
        <time>2012-06-08T08:44:29Z</time>
      </trkpt>
      <trkpt lat="47.3131" lon="4.99957">
        <ele>299.456</ele>
        <time>2012-06-08T08:44:40Z</time>
      </trkpt>
      <trkpt lat="47.3131" lon="4.99938">
        <ele>300.088</ele>
        <time>2012-06-08T08:44:51Z</time>
      </trkpt>
      <trkpt lat="47.31313" lon="4.99922">
        <ele>300.968</ele>
        <time>2012-06-08T08:45:02Z</time>
      </trkpt>
      <trkpt lat="47.31312" lon="4.99895">
        <ele>301.503</ele>
        <time>2012-06-08T08:45:13Z</time>
      </trkpt>
      <trkpt lat="47.3131" lon="4.99868">
        <ele>301.557</ele>
        <time>2012-06-08T08:45:24Z</time>
      </trkpt>
      <trkpt lat="47.31315" lon="4.99852">
        <ele>301.873</ele>
        <time>2012-06-08T08:45:35Z</time>
      </trkpt>
      <trkpt lat="47.31318" lon="4.99832">
        <ele>303.475</ele>
        <time>2012-06-08T08:45:46Z</time>
      </trkpt>
      <trkpt lat="47.31322" lon="4.99807">
        <ele>302.148</ele>
        <time>2012-06-08T08:45:57Z</time>
      </trkpt>
      <trkpt lat="47.31332" lon="4.99773">
        <ele>301.14</ele>
        <time>2012-06-08T08:46:08Z</time>
      </trkpt>
      <trkpt lat="47.31335" lon="4.99758">
        <ele>301.547</ele>
        <time>2012-06-08T08:46:19Z</time>
      </trkpt>
      <trkpt lat="47.3134" lon="4.9972">
        <ele>304.566</ele>
        <time>2012-06-08T08:46:30Z</time>
      </trkpt>
      <trkpt lat="47.3134" lon="4.99698">
        <ele>305.211</ele>
        <time>2012-06-08T08:46:41Z</time>
      </trkpt>
      <trkpt lat="47.31342" lon="4.99672">
        <ele>305.235</ele>
        <time>2012-06-08T08:46:52Z</time>
      </trkpt>
      <trkpt lat="47.31352" lon="4.99643">
        <ele>305.61</ele>
        <time>2012-06-08T08:47:03Z</time>
      </trkpt>
      <trkpt lat="47.31355" lon="4.99635">
        <ele>306.946</ele>
        <time>2012-06-08T08:47:14Z</time>
      </trkpt>
      <trkpt lat="47.31352" lon="4.9963">
        <ele>307.649</ele>
        <time>2012-06-08T08:47:25Z</time>
      </trkpt>
      <trkpt lat="47.3135" lon="4.99605">
        <ele>306.574</ele>
        <time>2012-06-08T08:47:36Z</time>
      </trkpt>
      <trkpt lat="47.31358" lon="4.99578">
        <ele>305.636</ele>
        <time>2012-06-08T08:47:47Z</time>
      </trkpt>
      <trkpt lat="47.31362" lon="4.99557">
        <ele>307.173</ele>
        <time>2012-06-08T08:47:58Z</time>
      </trkpt>
      <trkpt lat="47.31368" lon="4.9953">
        <ele>311.391</ele>
        <time>2012-06-08T08:48:09Z</time>
      </trkpt>
      <trkpt lat="47.31372" lon="4.99505">
        <ele>311.909</ele>
        <time>2012-06-08T08:48:20Z</time>
      </trkpt>
      <trkpt lat="47.31372" lon="4.9948">
        <ele>311.788</ele>
        <time>2012-06-08T08:48:31Z</time>
      </trkpt>
      <trkpt lat="47.31367" lon="4.99455">
        <ele>312</ele>
        <time>2012-06-08T08:48:42Z</time>
      </trkpt>
      <trkpt lat="47.31367" lon="4.99428">
        <ele>310.811</ele>
        <time>2012-06-08T08:48:53Z</time>
      </trkpt>
      <trkpt lat="47.31365" lon="4.99408">
        <ele>313.61</ele>
        <time>2012-06-08T08:49:04Z</time>
      </trkpt>
      <trkpt lat="47.3136" lon="4.99387">
        <ele>317.243</ele>
        <time>2012-06-08T08:49:15Z</time>
      </trkpt>
      <trkpt lat="47.31355" lon="4.99367">
        <ele>319.622</ele>
        <time>2012-06-08T08:49:26Z</time>
      </trkpt>
      <trkpt lat="47.31357" lon="4.99342">
        <ele>322.162</ele>
        <time>2012-06-08T08:49:37Z</time>
      </trkpt>
      <trkpt lat="47.31355" lon="4.99322">
        <ele>323.466</ele>
        <time>2012-06-08T08:49:48Z</time>
      </trkpt>
      <trkpt lat="47.31352" lon="4.99302">
        <ele>324.055</ele>
        <time>2012-06-08T08:49:59Z</time>
      </trkpt>
      <trkpt lat="47.31353" lon="4.99278">
        <ele>326.504</ele>
        <time>2012-06-08T08:50:10Z</time>
      </trkpt>
      <trkpt lat="47.31347" lon="4.99257">
        <ele>328.864</ele>
        <time>2012-06-08T08:50:21Z</time>
      </trkpt>
      <trkpt lat="47.31342" lon="4.9924">
        <ele>331.095</ele>
        <time>2012-06-08T08:50:32Z</time>
      </trkpt>
      <trkpt lat="47.31337" lon="4.99223">
        <ele>333.128</ele>
        <time>2012-06-08T08:50:43Z</time>
      </trkpt>
      <trkpt lat="47.31333" lon="4.99205">
        <ele>334.008</ele>
        <time>2012-06-08T08:50:54Z</time>
      </trkpt>
      <trkpt lat="47.3133" lon="4.99185">
        <ele>333.244</ele>
        <time>2012-06-08T08:51:05Z</time>
      </trkpt>
      <trkpt lat="47.31325" lon="4.9917">
        <ele>332.415</ele>
        <time>2012-06-08T08:51:16Z</time>
      </trkpt>
      <trkpt lat="47.3132" lon="4.99153">
        <ele>333.449</ele>
        <time>2012-06-08T08:51:27Z</time>
      </trkpt>
      <trkpt lat="47.31317" lon="4.99138">
        <ele>336.673</ele>
        <time>2012-06-08T08:51:38Z</time>
      </trkpt>
      <trkpt lat="47.31313" lon="4.99127">
        <ele>340.296</ele>
        <time>2012-06-08T08:51:49Z</time>
      </trkpt>
      <trkpt lat="47.31307" lon="4.99113">
        <ele>342.865</ele>
        <time>2012-06-08T08:52:00Z</time>
      </trkpt>
      <trkpt lat="47.31295" lon="4.99098">
        <ele>344.987</ele>
        <time>2012-06-08T08:52:11Z</time>
      </trkpt>
      <trkpt lat="47.31297" lon="4.99085">
        <ele>346.136</ele>
        <time>2012-06-08T08:52:22Z</time>
      </trkpt>
      <trkpt lat="47.3128" lon="4.99073">
        <ele>339.353</ele>
        <time>2012-06-08T08:52:33Z</time>
      </trkpt>
      <trkpt lat="47.31277" lon="4.99073">
        <ele>338.046</ele>
        <time>2012-06-08T08:52:44Z</time>
      </trkpt>
      <trkpt lat="47.31277" lon="4.99073">
        <ele>338.046</ele>
        <time>2012-06-08T08:52:55Z</time>
      </trkpt>
      <trkpt lat="47.31277" lon="4.99073">
        <ele>339.26</ele>
        <time>2012-06-08T08:53:06Z</time>
      </trkpt>
      <trkpt lat="47.31277" lon="4.99072">
        <ele>340.232</ele>
        <time>2012-06-08T08:53:17Z</time>
      </trkpt>
      <trkpt lat="47.31277" lon="4.99072">
        <ele>340.232</ele>
        <time>2012-06-08T08:53:28Z</time>
      </trkpt>
      <trkpt lat="47.31277" lon="4.99072">
        <ele>339.973</ele>
        <time>2012-06-08T08:53:39Z</time>
      </trkpt>
      <trkpt lat="47.31277" lon="4.99072">
        <ele>339.973</ele>
        <time>2012-06-08T08:53:50Z</time>
      </trkpt>
      <trkpt lat="47.31275" lon="4.99072">
        <ele>341.51</ele>
        <time>2012-06-08T08:54:01Z</time>
      </trkpt>
      <trkpt lat="47.31275" lon="4.99072">
        <ele>342.072</ele>
        <time>2012-06-08T08:54:12Z</time>
      </trkpt>
      <trkpt lat="47.31275" lon="4.99072">
        <ele>342.072</ele>
        <time>2012-06-08T08:54:23Z</time>
      </trkpt>
      <trkpt lat="47.31275" lon="4.99072">
        <ele>342.072</ele>
        <time>2012-06-08T08:54:34Z</time>
      </trkpt>
      <trkpt lat="47.31275" lon="4.99072">
        <ele>342.072</ele>
        <time>2012-06-08T08:54:45Z</time>
      </trkpt>
      <trkpt lat="47.31275" lon="4.99072">
        <ele>342.072</ele>
        <time>2012-06-08T08:54:56Z</time>
      </trkpt>
      <trkpt lat="47.31277" lon="4.99072">
        <ele>343.023</ele>
        <time>2012-06-08T08:55:07Z</time>
      </trkpt>
      <trkpt lat="47.31277" lon="4.99072">
        <ele>343.023</ele>
        <time>2012-06-08T08:55:18Z</time>
      </trkpt>
      <trkpt lat="47.31277" lon="4.99072">
        <ele>343.023</ele>
        <time>2012-06-08T08:55:29Z</time>
      </trkpt>
      <trkpt lat="47.31277" lon="4.99072">
        <ele>343.023</ele>
        <time>2012-06-08T08:55:40Z</time>
      </trkpt>
      <trkpt lat="47.31277" lon="4.99072">
        <ele>343.004</ele>
        <time>2012-06-08T08:55:51Z</time>
      </trkpt>
      <trkpt lat="47.31275" lon="4.99072">
        <ele>342.81</ele>
        <time>2012-06-08T08:56:02Z</time>
      </trkpt>
      <trkpt lat="47.31275" lon="4.99072">
        <ele>342.636</ele>
        <time>2012-06-08T08:56:13Z</time>
      </trkpt>
      <trkpt lat="47.31275" lon="4.99072">
        <ele>342.636</ele>
        <time>2012-06-08T08:56:24Z</time>
      </trkpt>
      <trkpt lat="47.31273" lon="4.9907">
        <ele>344.913</ele>
        <time>2012-06-08T08:56:35Z</time>
      </trkpt>
      <trkpt lat="47.31268" lon="4.99063">
        <ele>346.515</ele>
        <time>2012-06-08T08:56:46Z</time>
      </trkpt>
      <trkpt lat="47.31263" lon="4.99052">
        <ele>348.911</ele>
        <time>2012-06-08T08:56:57Z</time>
      </trkpt>
      <trkpt lat="47.31253" lon="4.99038">
        <ele>351.45</ele>
        <time>2012-06-08T08:57:08Z</time>
      </trkpt>
      <trkpt lat="47.31243" lon="4.99032">
        <ele>352.983</ele>
        <time>2012-06-08T08:57:19Z</time>
      </trkpt>
      <trkpt lat="47.31237" lon="4.99013">
        <ele>354.965</ele>
        <time>2012-06-08T08:57:30Z</time>
      </trkpt>
      <trkpt lat="47.31233" lon="4.98998">
        <ele>355.052</ele>
        <time>2012-06-08T08:57:41Z</time>
      </trkpt>
      <trkpt lat="47.31223" lon="4.98988">
        <ele>358.132</ele>
        <time>2012-06-08T08:57:52Z</time>
      </trkpt>
      <trkpt lat="47.31218" lon="4.98977">
        <ele>361.566</ele>
        <time>2012-06-08T08:58:03Z</time>
      </trkpt>
      <trkpt lat="47.31212" lon="4.98967">
        <ele>363.712</ele>
        <time>2012-06-08T08:58:14Z</time>
      </trkpt>
      <trkpt lat="47.31202" lon="4.98953">
        <ele>363.006</ele>
        <time>2012-06-08T08:58:25Z</time>
      </trkpt>
      <trkpt lat="47.31193" lon="4.98943">
        <ele>363.23</ele>
        <time>2012-06-08T08:58:36Z</time>
      </trkpt>
      <trkpt lat="47.3118" lon="4.98925">
        <ele>363.364</ele>
        <time>2012-06-08T08:58:47Z</time>
      </trkpt>
      <trkpt lat="47.31165" lon="4.98907">
        <ele>362.968</ele>
        <time>2012-06-08T08:58:58Z</time>
      </trkpt>
      <trkpt lat="47.31157" lon="4.98895">
        <ele>362.998</ele>
        <time>2012-06-08T08:59:09Z</time>
      </trkpt>
      <trkpt lat="47.31133" lon="4.98875">
        <ele>360.853</ele>
        <time>2012-06-08T08:59:20Z</time>
      </trkpt>
      <trkpt lat="47.31113" lon="4.98858">
        <ele>359.976</ele>
        <time>2012-06-08T08:59:31Z</time>
      </trkpt>
      <trkpt lat="47.31097" lon="4.9885">
        <ele>360.232</ele>
        <time>2012-06-08T08:59:42Z</time>
      </trkpt>
      <trkpt lat="47.31083" lon="4.98837">
        <ele>360.929</ele>
        <time>2012-06-08T08:59:53Z</time>
      </trkpt>
      <trkpt lat="47.3107" lon="4.98823">
        <ele>362.979</ele>
        <time>2012-06-08T09:00:04Z</time>
      </trkpt>
      <trkpt lat="47.3106" lon="4.98808">
        <ele>364.676</ele>
        <time>2012-06-08T09:00:15Z</time>
      </trkpt>
      <trkpt lat="47.31052" lon="4.98793">
        <ele>367.249</ele>
        <time>2012-06-08T09:00:26Z</time>
      </trkpt>
      <trkpt lat="47.31047" lon="4.98785">
        <ele>368.538</ele>
        <time>2012-06-08T09:00:37Z</time>
      </trkpt>
      <trkpt lat="47.31037" lon="4.98778">
        <ele>369.771</ele>
        <time>2012-06-08T09:00:48Z</time>
      </trkpt>
      <trkpt lat="47.3103" lon="4.98763">
        <ele>370.766</ele>
        <time>2012-06-08T09:00:59Z</time>
      </trkpt>
      <trkpt lat="47.31017" lon="4.98748">
        <ele>370.512</ele>
        <time>2012-06-08T09:01:10Z</time>
      </trkpt>
      <trkpt lat="47.31003" lon="4.98735">
        <ele>372.361</ele>
        <time>2012-06-08T09:01:21Z</time>
      </trkpt>
      <trkpt lat="47.30993" lon="4.9872">
        <ele>373.677</ele>
        <time>2012-06-08T09:01:32Z</time>
      </trkpt>
      <trkpt lat="47.30982" lon="4.98702">
        <ele>375.759</ele>
        <time>2012-06-08T09:01:43Z</time>
      </trkpt>
      <trkpt lat="47.30972" lon="4.98687">
        <ele>375.817</ele>
        <time>2012-06-08T09:01:54Z</time>
      </trkpt>
      <trkpt lat="47.3096" lon="4.9867">
        <ele>375.325</ele>
        <time>2012-06-08T09:02:05Z</time>
      </trkpt>
      <trkpt lat="47.30953" lon="4.98653">
        <ele>377.349</ele>
        <time>2012-06-08T09:02:16Z</time>
      </trkpt>
      <trkpt lat="47.30948" lon="4.98638">
        <ele>375.792</ele>
        <time>2012-06-08T09:02:27Z</time>
      </trkpt>
      <trkpt lat="47.30935" lon="4.98627">
        <ele>374.272</ele>
        <time>2012-06-08T09:02:38Z</time>
      </trkpt>
      <trkpt lat="47.30927" lon="4.98612">
        <ele>373.805</ele>
        <time>2012-06-08T09:02:49Z</time>
      </trkpt>
      <trkpt lat="47.30918" lon="4.98595">
        <ele>376.651</ele>
        <time>2012-06-08T09:03:00Z</time>
      </trkpt>
      <trkpt lat="47.309" lon="4.98587">
        <ele>376.054</ele>
        <time>2012-06-08T09:03:11Z</time>
      </trkpt>
      <trkpt lat="47.30892" lon="4.98582">
        <ele>375.979</ele>
        <time>2012-06-08T09:03:22Z</time>
      </trkpt>
      <trkpt lat="47.30883" lon="4.98572">
        <ele>378.313</ele>
        <time>2012-06-08T09:03:33Z</time>
      </trkpt>
      <trkpt lat="47.3088" lon="4.98557">
        <ele>378.274</ele>
        <time>2012-06-08T09:03:44Z</time>
      </trkpt>
      <trkpt lat="47.30865" lon="4.98542">
        <ele>377.013</ele>
        <time>2012-06-08T09:03:55Z</time>
      </trkpt>
      <trkpt lat="47.30843" lon="4.98532">
        <ele>374.964</ele>
        <time>2012-06-08T09:04:06Z</time>
      </trkpt>
      <trkpt lat="47.30828" lon="4.98528">
        <ele>372.862</ele>
        <time>2012-06-08T09:04:17Z</time>
      </trkpt>
      <trkpt lat="47.30817" lon="4.98523">
        <ele>373.827</ele>
        <time>2012-06-08T09:04:28Z</time>
      </trkpt>
      <trkpt lat="47.30802" lon="4.9851">
        <ele>376.641</ele>
        <time>2012-06-08T09:04:39Z</time>
      </trkpt>
      <trkpt lat="47.30787" lon="4.98495">
        <ele>377.588</ele>
        <time>2012-06-08T09:04:50Z</time>
      </trkpt>
      <trkpt lat="47.30777" lon="4.98478">
        <ele>378.203</ele>
        <time>2012-06-08T09:05:01Z</time>
      </trkpt>
      <trkpt lat="47.30763" lon="4.98465">
        <ele>380.528</ele>
        <time>2012-06-08T09:05:12Z</time>
      </trkpt>
      <trkpt lat="47.3075" lon="4.98452">
        <ele>381.411</ele>
        <time>2012-06-08T09:05:23Z</time>
      </trkpt>
      <trkpt lat="47.30737" lon="4.9844">
        <ele>380.25</ele>
        <time>2012-06-08T09:05:34Z</time>
      </trkpt>
      <trkpt lat="47.30725" lon="4.9843">
        <ele>380.054</ele>
        <time>2012-06-08T09:05:45Z</time>
      </trkpt>
      <trkpt lat="47.30715" lon="4.9842">
        <ele>380.448</ele>
        <time>2012-06-08T09:05:56Z</time>
      </trkpt>
      <trkpt lat="47.30703" lon="4.98415">
        <ele>381.29</ele>
        <time>2012-06-08T09:06:07Z</time>
      </trkpt>
      <trkpt lat="47.30695" lon="4.984">
        <ele>380.485</ele>
        <time>2012-06-08T09:06:18Z</time>
      </trkpt>
      <trkpt lat="47.30688" lon="4.98378">
        <ele>379.145</ele>
        <time>2012-06-08T09:06:29Z</time>
      </trkpt>
      <trkpt lat="47.30678" lon="4.9836">
        <ele>376.617</ele>
        <time>2012-06-08T09:06:40Z</time>
      </trkpt>
      <trkpt lat="47.30668" lon="4.98345">
        <ele>377.177</ele>
        <time>2012-06-08T09:06:51Z</time>
      </trkpt>
      <trkpt lat="47.30663" lon="4.98327">
        <ele>377.106</ele>
        <time>2012-06-08T09:07:02Z</time>
      </trkpt>
      <trkpt lat="47.30652" lon="4.9831">
        <ele>377.755</ele>
        <time>2012-06-08T09:07:13Z</time>
      </trkpt>
      <trkpt lat="47.30642" lon="4.98292">
        <ele>377.604</ele>
        <time>2012-06-08T09:07:24Z</time>
      </trkpt>
      <trkpt lat="47.30633" lon="4.98275">
        <ele>376.387</ele>
        <time>2012-06-08T09:07:35Z</time>
      </trkpt>
      <trkpt lat="47.30627" lon="4.98263">
        <ele>376.098</ele>
        <time>2012-06-08T09:07:46Z</time>
      </trkpt>
      <trkpt lat="47.30627" lon="4.98263">
        <ele>376.098</ele>
        <time>2012-06-08T09:07:57Z</time>
      </trkpt>
      <trkpt lat="47.30627" lon="4.98263">
        <ele>376.098</ele>
        <time>2012-06-08T09:08:08Z</time>
      </trkpt>
      <trkpt lat="47.30627" lon="4.98263">
        <ele>376.098</ele>
        <time>2012-06-08T09:08:19Z</time>
      </trkpt>
      <trkpt lat="47.30627" lon="4.98263">
        <ele>376.098</ele>
        <time>2012-06-08T09:08:30Z</time>
      </trkpt>
      <trkpt lat="47.30625" lon="4.98263">
        <ele>376.392</ele>
        <time>2012-06-08T09:08:41Z</time>
      </trkpt>
      <trkpt lat="47.30625" lon="4.98263">
        <ele>376.392</ele>
        <time>2012-06-08T09:08:52Z</time>
      </trkpt>
      <trkpt lat="47.3062" lon="4.98268">
        <ele>375.277</ele>
        <time>2012-06-08T09:09:03Z</time>
      </trkpt>
      <trkpt lat="47.30608" lon="4.9827">
        <ele>373.502</ele>
        <time>2012-06-08T09:09:14Z</time>
      </trkpt>
      <trkpt lat="47.30595" lon="4.98272">
        <ele>371.668</ele>
        <time>2012-06-08T09:09:25Z</time>
      </trkpt>
      <trkpt lat="47.30578" lon="4.98275">
        <ele>370.656</ele>
        <time>2012-06-08T09:09:36Z</time>
      </trkpt>
      <trkpt lat="47.30568" lon="4.9827">
        <ele>370.937</ele>
        <time>2012-06-08T09:09:47Z</time>
      </trkpt>
      <trkpt lat="47.30557" lon="4.98255">
        <ele>373.005</ele>
        <time>2012-06-08T09:09:58Z</time>
      </trkpt>
      <trkpt lat="47.30545" lon="4.9824">
        <ele>374.373</ele>
        <time>2012-06-08T09:10:09Z</time>
      </trkpt>
      <trkpt lat="47.30538" lon="4.98227">
        <ele>373.885</ele>
        <time>2012-06-08T09:10:20Z</time>
      </trkpt>
      <trkpt lat="47.30527" lon="4.9821">
        <ele>373.063</ele>
        <time>2012-06-08T09:10:31Z</time>
      </trkpt>
      <trkpt lat="47.30518" lon="4.98198">
        <ele>372.949</ele>
        <time>2012-06-08T09:10:42Z</time>
      </trkpt>
      <trkpt lat="47.30503" lon="4.98187">
        <ele>373.821</ele>
        <time>2012-06-08T09:10:53Z</time>
      </trkpt>
      <trkpt lat="47.3049" lon="4.98168">
        <ele>373.334</ele>
        <time>2012-06-08T09:11:04Z</time>
      </trkpt>
      <trkpt lat="47.30478" lon="4.98155">
        <ele>373.525</ele>
        <time>2012-06-08T09:11:15Z</time>
      </trkpt>
      <trkpt lat="47.30468" lon="4.98138">
        <ele>372.916</ele>
        <time>2012-06-08T09:11:26Z</time>
      </trkpt>
      <trkpt lat="47.30455" lon="4.98128">
        <ele>371.893</ele>
        <time>2012-06-08T09:11:37Z</time>
      </trkpt>
      <trkpt lat="47.30438" lon="4.98127">
        <ele>372.764</ele>
        <time>2012-06-08T09:11:48Z</time>
      </trkpt>
      <trkpt lat="47.30423" lon="4.98127">
        <ele>371.287</ele>
        <time>2012-06-08T09:11:59Z</time>
      </trkpt>
      <trkpt lat="47.3041" lon="4.98127">
        <ele>370.886</ele>
        <time>2012-06-08T09:12:10Z</time>
      </trkpt>
      <trkpt lat="47.30397" lon="4.98128">
        <ele>370.321</ele>
        <time>2012-06-08T09:12:21Z</time>
      </trkpt>
      <trkpt lat="47.30387" lon="4.98127">
        <ele>370.366</ele>
        <time>2012-06-08T09:12:32Z</time>
      </trkpt>
      <trkpt lat="47.30375" lon="4.98125">
        <ele>371.044</ele>
        <time>2012-06-08T09:12:43Z</time>
      </trkpt>
      <trkpt lat="47.30353" lon="4.98125">
        <ele>372.97</ele>
        <time>2012-06-08T09:12:54Z</time>
      </trkpt>
      <trkpt lat="47.30337" lon="4.98122">
        <ele>374.117</ele>
        <time>2012-06-08T09:13:05Z</time>
      </trkpt>
      <trkpt lat="47.30318" lon="4.98122">
        <ele>374.736</ele>
        <time>2012-06-08T09:13:16Z</time>
      </trkpt>
      <trkpt lat="47.30302" lon="4.98128">
        <ele>373.558</ele>
        <time>2012-06-08T09:13:27Z</time>
      </trkpt>
      <trkpt lat="47.30287" lon="4.98142">
        <ele>371.863</ele>
        <time>2012-06-08T09:13:38Z</time>
      </trkpt>
      <trkpt lat="47.30275" lon="4.98152">
        <ele>371.717</ele>
        <time>2012-06-08T09:13:49Z</time>
      </trkpt>
      <trkpt lat="47.30262" lon="4.98167">
        <ele>370.076</ele>
        <time>2012-06-08T09:14:00Z</time>
      </trkpt>
      <trkpt lat="47.30253" lon="4.98173">
        <ele>369.105</ele>
        <time>2012-06-08T09:14:11Z</time>
      </trkpt>
      <trkpt lat="47.30248" lon="4.98173">
        <ele>369.643</ele>
        <time>2012-06-08T09:14:22Z</time>
      </trkpt>
      <trkpt lat="47.30237" lon="4.98175">
        <ele>370.607</ele>
        <time>2012-06-08T09:14:33Z</time>
      </trkpt>
      <trkpt lat="47.30233" lon="4.98175">
        <ele>370.356</ele>
        <time>2012-06-08T09:14:44Z</time>
      </trkpt>
      <trkpt lat="47.30232" lon="4.98168">
        <ele>369.689</ele>
        <time>2012-06-08T09:14:55Z</time>
      </trkpt>
      <trkpt lat="47.30213" lon="4.98172">
        <ele>370.357</ele>
        <time>2012-06-08T09:15:06Z</time>
      </trkpt>
      <trkpt lat="47.30203" lon="4.98175">
        <ele>371.008</ele>
        <time>2012-06-08T09:15:17Z</time>
      </trkpt>
      <trkpt lat="47.30192" lon="4.98183">
        <ele>373.553</ele>
        <time>2012-06-08T09:15:28Z</time>
      </trkpt>
      <trkpt lat="47.30185" lon="4.982">
        <ele>376.494</ele>
        <time>2012-06-08T09:15:39Z</time>
      </trkpt>
      <trkpt lat="47.30182" lon="4.98213">
        <ele>378.68</ele>
        <time>2012-06-08T09:15:50Z</time>
      </trkpt>
      <trkpt lat="47.30172" lon="4.98233">
        <ele>381.011</ele>
        <time>2012-06-08T09:16:01Z</time>
      </trkpt>
      <trkpt lat="47.3016" lon="4.98262">
        <ele>384.062</ele>
        <time>2012-06-08T09:16:12Z</time>
      </trkpt>
      <trkpt lat="47.30152" lon="4.9828">
        <ele>386.168</ele>
        <time>2012-06-08T09:16:23Z</time>
      </trkpt>
      <trkpt lat="47.3015" lon="4.98307">
        <ele>386.336</ele>
        <time>2012-06-08T09:16:34Z</time>
      </trkpt>
      <trkpt lat="47.30143" lon="4.98325">
        <ele>388.042</ele>
        <time>2012-06-08T09:16:45Z</time>
      </trkpt>
      <trkpt lat="47.30138" lon="4.98348">
        <ele>386.806</ele>
        <time>2012-06-08T09:16:56Z</time>
      </trkpt>
      <trkpt lat="47.30132" lon="4.98368">
        <ele>383.5</ele>
        <time>2012-06-08T09:17:07Z</time>
      </trkpt>
      <trkpt lat="47.3013" lon="4.98377">
        <ele>382.192</ele>
        <time>2012-06-08T09:17:18Z</time>
      </trkpt>
      <trkpt lat="47.3013" lon="4.98393">
        <ele>381.791</ele>
        <time>2012-06-08T09:17:29Z</time>
      </trkpt>
      <trkpt lat="47.30125" lon="4.98403">
        <ele>381.356</ele>
        <time>2012-06-08T09:17:40Z</time>
      </trkpt>
      <trkpt lat="47.30118" lon="4.98427">
        <ele>379.408</ele>
        <time>2012-06-08T09:17:51Z</time>
      </trkpt>
      <trkpt lat="47.30107" lon="4.98452">
        <ele>378.241</ele>
        <time>2012-06-08T09:18:02Z</time>
      </trkpt>
      <trkpt lat="47.30098" lon="4.9847">
        <ele>375.912</ele>
        <time>2012-06-08T09:18:13Z</time>
      </trkpt>
      <trkpt lat="47.30088" lon="4.98488">
        <ele>374.504</ele>
        <time>2012-06-08T09:18:24Z</time>
      </trkpt>
      <trkpt lat="47.30078" lon="4.98508">
        <ele>373.987</ele>
        <time>2012-06-08T09:18:35Z</time>
      </trkpt>
      <trkpt lat="47.30075" lon="4.98513">
        <ele>373.637</ele>
        <time>2012-06-08T09:18:46Z</time>
      </trkpt>
      <trkpt lat="47.30073" lon="4.98513">
        <ele>373.71</ele>
        <time>2012-06-08T09:18:57Z</time>
      </trkpt>
      <trkpt lat="47.30073" lon="4.98513">
        <ele>373.71</ele>
        <time>2012-06-08T09:19:08Z</time>
      </trkpt>
      <trkpt lat="47.30073" lon="4.98513">
        <ele>373.838</ele>
        <time>2012-06-08T09:19:19Z</time>
      </trkpt>
      <trkpt lat="47.30073" lon="4.98515">
        <ele>374.597</ele>
        <time>2012-06-08T09:19:30Z</time>
      </trkpt>
      <trkpt lat="47.30073" lon="4.98515">
        <ele>374.597</ele>
        <time>2012-06-08T09:19:41Z</time>
      </trkpt>
      <trkpt lat="47.30072" lon="4.98515">
        <ele>375.043</ele>
        <time>2012-06-08T09:19:52Z</time>
      </trkpt>
      <trkpt lat="47.30072" lon="4.98515">
        <ele>375.043</ele>
        <time>2012-06-08T09:20:03Z</time>
      </trkpt>
      <trkpt lat="47.3007" lon="4.9851">
        <ele>375.194</ele>
        <time>2012-06-08T09:20:14Z</time>
      </trkpt>
      <trkpt lat="47.3006" lon="4.98495">
        <ele>375.365</ele>
        <time>2012-06-08T09:20:25Z</time>
      </trkpt>
      <trkpt lat="47.30055" lon="4.98483">
        <ele>375.716</ele>
        <time>2012-06-08T09:20:36Z</time>
      </trkpt>
      <trkpt lat="47.30048" lon="4.98467">
        <ele>379.684</ele>
        <time>2012-06-08T09:20:47Z</time>
      </trkpt>
      <trkpt lat="47.30042" lon="4.98448">
        <ele>382.065</ele>
        <time>2012-06-08T09:20:58Z</time>
      </trkpt>
      <trkpt lat="47.30037" lon="4.9844">
        <ele>381.835</ele>
        <time>2012-06-08T09:21:09Z</time>
      </trkpt>
      <trkpt lat="47.30038" lon="4.98423">
        <ele>382.039</ele>
        <time>2012-06-08T09:21:20Z</time>
      </trkpt>
      <trkpt lat="47.30045" lon="4.98407">
        <ele>381.313</ele>
        <time>2012-06-08T09:21:31Z</time>
      </trkpt>
      <trkpt lat="47.30048" lon="4.98398">
        <ele>380.502</ele>
        <time>2012-06-08T09:21:42Z</time>
      </trkpt>
      <trkpt lat="47.30048" lon="4.984">
        <ele>380.316</ele>
        <time>2012-06-08T09:21:53Z</time>
      </trkpt>
      <trkpt lat="47.3005" lon="4.98403">
        <ele>380.101</ele>
        <time>2012-06-08T09:22:04Z</time>
      </trkpt>
      <trkpt lat="47.30048" lon="4.98403">
        <ele>380.402</ele>
        <time>2012-06-08T09:22:15Z</time>
      </trkpt>
      <trkpt lat="47.30048" lon="4.98403">
        <ele>380.402</ele>
        <time>2012-06-08T09:22:26Z</time>
      </trkpt>
      <trkpt lat="47.30048" lon="4.98405">
        <ele>380.14</ele>
        <time>2012-06-08T09:22:37Z</time>
      </trkpt>
      <trkpt lat="47.30048" lon="4.98405">
        <ele>380.14</ele>
        <time>2012-06-08T09:22:48Z</time>
      </trkpt>
      <trkpt lat="47.30048" lon="4.98405">
        <ele>380.14</ele>
        <time>2012-06-08T09:22:59Z</time>
      </trkpt>
      <trkpt lat="47.30048" lon="4.98405">
        <ele>380.003</ele>
        <time>2012-06-08T09:23:10Z</time>
      </trkpt>
      <trkpt lat="47.30048" lon="4.98405">
        <ele>380.003</ele>
        <time>2012-06-08T09:23:21Z</time>
      </trkpt>
      <trkpt lat="47.30048" lon="4.98405">
        <ele>380.094</ele>
        <time>2012-06-08T09:23:32Z</time>
      </trkpt>
      <trkpt lat="47.3005" lon="4.98405">
        <ele>380.452</ele>
        <time>2012-06-08T09:23:43Z</time>
      </trkpt>
      <trkpt lat="47.30047" lon="4.984">
        <ele>380.892</ele>
        <time>2012-06-08T09:23:54Z</time>
      </trkpt>
      <trkpt lat="47.30047" lon="4.98395">
        <ele>381.308</ele>
        <time>2012-06-08T09:24:05Z</time>
      </trkpt>
      <trkpt lat="47.30045" lon="4.98395">
        <ele>380.988</ele>
        <time>2012-06-08T09:24:16Z</time>
      </trkpt>
      <trkpt lat="47.30045" lon="4.98397">
        <ele>380.918</ele>
        <time>2012-06-08T09:24:27Z</time>
      </trkpt>
      <trkpt lat="47.3004" lon="4.98405">
        <ele>380.265</ele>
        <time>2012-06-08T09:24:38Z</time>
      </trkpt>
      <trkpt lat="47.30037" lon="4.98415">
        <ele>381.489</ele>
        <time>2012-06-08T09:24:49Z</time>
      </trkpt>
      <trkpt lat="47.30032" lon="4.98422">
        <ele>381.458</ele>
        <time>2012-06-08T09:25:00Z</time>
      </trkpt>
      <trkpt lat="47.30032" lon="4.98422">
        <ele>381.509</ele>
        <time>2012-06-08T09:25:11Z</time>
      </trkpt>
      <trkpt lat="47.30032" lon="4.98422">
        <ele>382.475</ele>
        <time>2012-06-08T09:25:22Z</time>
      </trkpt>
      <trkpt lat="47.30028" lon="4.98415">
        <ele>382.111</ele>
        <time>2012-06-08T09:25:33Z</time>
      </trkpt>
      <trkpt lat="47.30027" lon="4.98412">
        <ele>382.927</ele>
        <time>2012-06-08T09:25:44Z</time>
      </trkpt>
      <trkpt lat="47.30018" lon="4.98395">
        <ele>385.15</ele>
        <time>2012-06-08T09:25:55Z</time>
      </trkpt>
      <trkpt lat="47.3001" lon="4.9838">
        <ele>386.689</ele>
        <time>2012-06-08T09:26:06Z</time>
      </trkpt>
      <trkpt lat="47.3" lon="4.98368">
        <ele>388.814</ele>
        <time>2012-06-08T09:26:17Z</time>
      </trkpt>
      <trkpt lat="47.29992" lon="4.9835">
        <ele>386.3</ele>
        <time>2012-06-08T09:26:28Z</time>
      </trkpt>
      <trkpt lat="47.29982" lon="4.98333">
        <ele>392.354</ele>
        <time>2012-06-08T09:26:39Z</time>
      </trkpt>
      <trkpt lat="47.29973" lon="4.98332">
        <ele>391.309</ele>
        <time>2012-06-08T09:26:50Z</time>
      </trkpt>
      <trkpt lat="47.29967" lon="4.98335">
        <ele>391.161</ele>
        <time>2012-06-08T09:27:01Z</time>
      </trkpt>
      <trkpt lat="47.29953" lon="4.98333">
        <ele>391.967</ele>
        <time>2012-06-08T09:27:12Z</time>
      </trkpt>
      <trkpt lat="47.29938" lon="4.98327">
        <ele>392.915</ele>
        <time>2012-06-08T09:27:23Z</time>
      </trkpt>
      <trkpt lat="47.29927" lon="4.9832">
        <ele>395.091</ele>
        <time>2012-06-08T09:27:34Z</time>
      </trkpt>
      <trkpt lat="47.29917" lon="4.98315">
        <ele>398.363</ele>
        <time>2012-06-08T09:27:45Z</time>
      </trkpt>
      <trkpt lat="47.29898" lon="4.98305">
        <ele>396.432</ele>
        <time>2012-06-08T09:27:56Z</time>
      </trkpt>
      <trkpt lat="47.29887" lon="4.9829">
        <ele>395.821</ele>
        <time>2012-06-08T09:28:07Z</time>
      </trkpt>
      <trkpt lat="47.29873" lon="4.98278">
        <ele>394.583</ele>
        <time>2012-06-08T09:28:18Z</time>
      </trkpt>
      <trkpt lat="47.2986" lon="4.98267">
        <ele>394.725</ele>
        <time>2012-06-08T09:28:29Z</time>
      </trkpt>
      <trkpt lat="47.29848" lon="4.98257">
        <ele>393.212</ele>
        <time>2012-06-08T09:28:40Z</time>
      </trkpt>
      <trkpt lat="47.29835" lon="4.98247">
        <ele>393.05</ele>
        <time>2012-06-08T09:28:51Z</time>
      </trkpt>
      <trkpt lat="47.29822" lon="4.98237">
        <ele>393.083</ele>
        <time>2012-06-08T09:29:02Z</time>
      </trkpt>
      <trkpt lat="47.2981" lon="4.98228">
        <ele>394.058</ele>
        <time>2012-06-08T09:29:13Z</time>
      </trkpt>
      <trkpt lat="47.29797" lon="4.98217">
        <ele>394.913</ele>
        <time>2012-06-08T09:29:24Z</time>
      </trkpt>
      <trkpt lat="47.29783" lon="4.98207">
        <ele>395.682</ele>
        <time>2012-06-08T09:29:35Z</time>
      </trkpt>
      <trkpt lat="47.29772" lon="4.98198">
        <ele>393.555</ele>
        <time>2012-06-08T09:29:46Z</time>
      </trkpt>
      <trkpt lat="47.29765" lon="4.982">
        <ele>391.17</ele>
        <time>2012-06-08T09:29:57Z</time>
      </trkpt>
      <trkpt lat="47.29757" lon="4.98208">
        <ele>388.593</ele>
        <time>2012-06-08T09:30:08Z</time>
      </trkpt>
      <trkpt lat="47.29747" lon="4.98217">
        <ele>387.485</ele>
        <time>2012-06-08T09:30:19Z</time>
      </trkpt>
      <trkpt lat="47.29737" lon="4.98222">
        <ele>385.605</ele>
        <time>2012-06-08T09:30:30Z</time>
      </trkpt>
      <trkpt lat="47.29725" lon="4.98223">
        <ele>383.717</ele>
        <time>2012-06-08T09:30:41Z</time>
      </trkpt>
      <trkpt lat="47.2971" lon="4.98225">
        <ele>383.651</ele>
        <time>2012-06-08T09:30:52Z</time>
      </trkpt>
      <trkpt lat="47.29695" lon="4.98227">
        <ele>382.296</ele>
        <time>2012-06-08T09:31:03Z</time>
      </trkpt>
      <trkpt lat="47.29682" lon="4.98232">
        <ele>380.331</ele>
        <time>2012-06-08T09:31:14Z</time>
      </trkpt>
      <trkpt lat="47.29673" lon="4.98242">
        <ele>380.471</ele>
        <time>2012-06-08T09:31:25Z</time>
      </trkpt>
      <trkpt lat="47.29663" lon="4.98263">
        <ele>380.359</ele>
        <time>2012-06-08T09:31:36Z</time>
      </trkpt>
      <trkpt lat="47.29652" lon="4.98278">
        <ele>380.047</ele>
        <time>2012-06-08T09:31:47Z</time>
      </trkpt>
      <trkpt lat="47.29642" lon="4.98285">
        <ele>378.383</ele>
        <time>2012-06-08T09:31:58Z</time>
      </trkpt>
      <trkpt lat="47.2963" lon="4.98283">
        <ele>380.116</ele>
        <time>2012-06-08T09:32:09Z</time>
      </trkpt>
      <trkpt lat="47.29618" lon="4.98273">
        <ele>383.181</ele>
        <time>2012-06-08T09:32:20Z</time>
      </trkpt>
      <trkpt lat="47.29605" lon="4.98263">
        <ele>383.585</ele>
        <time>2012-06-08T09:32:31Z</time>
      </trkpt>
      <trkpt lat="47.29593" lon="4.98255">
        <ele>383.184</ele>
        <time>2012-06-08T09:32:42Z</time>
      </trkpt>
      <trkpt lat="47.29577" lon="4.98245">
        <ele>383.497</ele>
        <time>2012-06-08T09:32:53Z</time>
      </trkpt>
      <trkpt lat="47.29562" lon="4.98235">
        <ele>385.453</ele>
        <time>2012-06-08T09:33:04Z</time>
      </trkpt>
      <trkpt lat="47.2955" lon="4.9823">
        <ele>386.871</ele>
        <time>2012-06-08T09:33:15Z</time>
      </trkpt>
      <trkpt lat="47.29535" lon="4.98228">
        <ele>387.241</ele>
        <time>2012-06-08T09:33:26Z</time>
      </trkpt>
      <trkpt lat="47.29523" lon="4.98225">
        <ele>388.466</ele>
        <time>2012-06-08T09:33:37Z</time>
      </trkpt>
      <trkpt lat="47.29508" lon="4.9822">
        <ele>387.836</ele>
        <time>2012-06-08T09:33:48Z</time>
      </trkpt>
      <trkpt lat="47.29495" lon="4.9821">
        <ele>389.679</ele>
        <time>2012-06-08T09:33:59Z</time>
      </trkpt>
      <trkpt lat="47.29483" lon="4.98198">
        <ele>388.496</ele>
        <time>2012-06-08T09:34:10Z</time>
      </trkpt>
      <trkpt lat="47.29468" lon="4.9819">
        <ele>389.648</ele>
        <time>2012-06-08T09:34:21Z</time>
      </trkpt>
      <trkpt lat="47.29457" lon="4.98183">
        <ele>390.491</ele>
        <time>2012-06-08T09:34:32Z</time>
      </trkpt>
      <trkpt lat="47.29445" lon="4.98178">
        <ele>390.774</ele>
        <time>2012-06-08T09:34:43Z</time>
      </trkpt>
      <trkpt lat="47.29433" lon="4.98177">
        <ele>390.765</ele>
        <time>2012-06-08T09:34:54Z</time>
      </trkpt>
      <trkpt lat="47.29423" lon="4.98172">
        <ele>388.961</ele>
        <time>2012-06-08T09:35:05Z</time>
      </trkpt>
      <trkpt lat="47.29415" lon="4.9817">
        <ele>389.137</ele>
        <time>2012-06-08T09:35:16Z</time>
      </trkpt>
      <trkpt lat="47.29407" lon="4.9817">
        <ele>388.171</ele>
        <time>2012-06-08T09:35:27Z</time>
      </trkpt>
      <trkpt lat="47.29392" lon="4.98168">
        <ele>387.055</ele>
        <time>2012-06-08T09:35:38Z</time>
      </trkpt>
      <trkpt lat="47.2938" lon="4.9816">
        <ele>387.495</ele>
        <time>2012-06-08T09:35:49Z</time>
      </trkpt>
      <trkpt lat="47.29378" lon="4.9816">
        <ele>387.693</ele>
        <time>2012-06-08T09:36:00Z</time>
      </trkpt>
      <trkpt lat="47.29377" lon="4.9816">
        <ele>387.873</ele>
        <time>2012-06-08T09:36:11Z</time>
      </trkpt>
      <trkpt lat="47.29375" lon="4.9816">
        <ele>387.295</ele>
        <time>2012-06-08T09:36:22Z</time>
      </trkpt>
      <trkpt lat="47.29373" lon="4.9816">
        <ele>385.971</ele>
        <time>2012-06-08T09:36:33Z</time>
      </trkpt>
      <trkpt lat="47.29368" lon="4.98163">
        <ele>383.047</ele>
        <time>2012-06-08T09:36:44Z</time>
      </trkpt>
      <trkpt lat="47.29365" lon="4.98165">
        <ele>382.889</ele>
        <time>2012-06-08T09:36:55Z</time>
      </trkpt>
      <trkpt lat="47.29358" lon="4.98167">
        <ele>381.642</ele>
        <time>2012-06-08T09:37:06Z</time>
      </trkpt>
      <trkpt lat="47.29355" lon="4.98167">
        <ele>381.009</ele>
        <time>2012-06-08T09:37:17Z</time>
      </trkpt>
      <trkpt lat="47.29352" lon="4.9817">
        <ele>381.835</ele>
        <time>2012-06-08T09:37:28Z</time>
      </trkpt>
      <trkpt lat="47.29343" lon="4.98183">
        <ele>381.508</ele>
        <time>2012-06-08T09:37:39Z</time>
      </trkpt>
      <trkpt lat="47.29323" lon="4.98202">
        <ele>378.35</ele>
        <time>2012-06-08T09:37:50Z</time>
      </trkpt>
      <trkpt lat="47.29312" lon="4.98218">
        <ele>377.128</ele>
        <time>2012-06-08T09:38:01Z</time>
      </trkpt>
      <trkpt lat="47.29307" lon="4.98227">
        <ele>375.893</ele>
        <time>2012-06-08T09:38:12Z</time>
      </trkpt>
      <trkpt lat="47.293" lon="4.98238">
        <ele>376.272</ele>
        <time>2012-06-08T09:38:23Z</time>
      </trkpt>
      <trkpt lat="47.293" lon="4.9824">
        <ele>376.259</ele>
        <time>2012-06-08T09:38:34Z</time>
      </trkpt>
      <trkpt lat="47.293" lon="4.9824">
        <ele>375.981</ele>
        <time>2012-06-08T09:38:45Z</time>
      </trkpt>
      <trkpt lat="47.29298" lon="4.9824">
        <ele>375.824</ele>
        <time>2012-06-08T09:38:56Z</time>
      </trkpt>
      <trkpt lat="47.29298" lon="4.9824">
        <ele>375.824</ele>
        <time>2012-06-08T09:39:07Z</time>
      </trkpt>
      <trkpt lat="47.29298" lon="4.9824">
        <ele>375.824</ele>
        <time>2012-06-08T09:39:18Z</time>
      </trkpt>
      <trkpt lat="47.29298" lon="4.9824">
        <ele>375.824</ele>
        <time>2012-06-08T09:39:29Z</time>
      </trkpt>
      <trkpt lat="47.29297" lon="4.9824">
        <ele>375.713</ele>
        <time>2012-06-08T09:39:40Z</time>
      </trkpt>
      <trkpt lat="47.29288" lon="4.9824">
        <ele>377.247</ele>
        <time>2012-06-08T09:39:51Z</time>
      </trkpt>
      <trkpt lat="47.29272" lon="4.98242">
        <ele>378.128</ele>
        <time>2012-06-08T09:40:02Z</time>
      </trkpt>
      <trkpt lat="47.29257" lon="4.9824">
        <ele>379.724</ele>
        <time>2012-06-08T09:40:13Z</time>
      </trkpt>
      <trkpt lat="47.29245" lon="4.98242">
        <ele>380.864</ele>
        <time>2012-06-08T09:40:24Z</time>
      </trkpt>
      <trkpt lat="47.29235" lon="4.98243">
        <ele>379.596</ele>
        <time>2012-06-08T09:40:35Z</time>
      </trkpt>
      <trkpt lat="47.29222" lon="4.98252">
        <ele>380.345</ele>
        <time>2012-06-08T09:40:46Z</time>
      </trkpt>
      <trkpt lat="47.29213" lon="4.98255">
        <ele>380.91</ele>
        <time>2012-06-08T09:40:57Z</time>
      </trkpt>
      <trkpt lat="47.2921" lon="4.9825">
        <ele>381.58</ele>
        <time>2012-06-08T09:41:08Z</time>
      </trkpt>
      <trkpt lat="47.29203" lon="4.9825">
        <ele>381.78</ele>
        <time>2012-06-08T09:41:19Z</time>
      </trkpt>
      <trkpt lat="47.29195" lon="4.98247">
        <ele>382.149</ele>
        <time>2012-06-08T09:41:30Z</time>
      </trkpt>
      <trkpt lat="47.29178" lon="4.98248">
        <ele>382.121</ele>
        <time>2012-06-08T09:41:41Z</time>
      </trkpt>
      <trkpt lat="47.29165" lon="4.98248">
        <ele>381.886</ele>
        <time>2012-06-08T09:41:52Z</time>
      </trkpt>
      <trkpt lat="47.29157" lon="4.98238">
        <ele>384.073</ele>
        <time>2012-06-08T09:42:03Z</time>
      </trkpt>
      <trkpt lat="47.29147" lon="4.98233">
        <ele>387.251</ele>
        <time>2012-06-08T09:42:14Z</time>
      </trkpt>
      <trkpt lat="47.29135" lon="4.9823">
        <ele>388.393</ele>
        <time>2012-06-08T09:42:25Z</time>
      </trkpt>
      <trkpt lat="47.29122" lon="4.98225">
        <ele>389.354</ele>
        <time>2012-06-08T09:42:36Z</time>
      </trkpt>
      <trkpt lat="47.29103" lon="4.98218">
        <ele>389.524</ele>
        <time>2012-06-08T09:42:47Z</time>
      </trkpt>
      <trkpt lat="47.291" lon="4.982">
        <ele>386.783</ele>
        <time>2012-06-08T09:42:58Z</time>
      </trkpt>
      <trkpt lat="47.29078" lon="4.98193">
        <ele>384.526</ele>
        <time>2012-06-08T09:43:09Z</time>
      </trkpt>
      <trkpt lat="47.29058" lon="4.98185">
        <ele>387.535</ele>
        <time>2012-06-08T09:43:20Z</time>
      </trkpt>
      <trkpt lat="47.29047" lon="4.98183">
        <ele>385.433</ele>
        <time>2012-06-08T09:43:31Z</time>
      </trkpt>
      <trkpt lat="47.29037" lon="4.98187">
        <ele>385.281</ele>
        <time>2012-06-08T09:43:42Z</time>
      </trkpt>
      <trkpt lat="47.29028" lon="4.982">
        <ele>389.203</ele>
        <time>2012-06-08T09:43:53Z</time>
      </trkpt>
      <trkpt lat="47.29015" lon="4.9822">
        <ele>390.796</ele>
        <time>2012-06-08T09:44:04Z</time>
      </trkpt>
      <trkpt lat="47.28995" lon="4.98235">
        <ele>388.931</ele>
        <time>2012-06-08T09:44:15Z</time>
      </trkpt>
      <trkpt lat="47.28972" lon="4.98255">
        <ele>384.04</ele>
        <time>2012-06-08T09:44:26Z</time>
      </trkpt>
      <trkpt lat="47.28957" lon="4.98277">
        <ele>384.855</ele>
        <time>2012-06-08T09:44:37Z</time>
      </trkpt>
      <trkpt lat="47.28948" lon="4.9828">
        <ele>385.391</ele>
        <time>2012-06-08T09:44:48Z</time>
      </trkpt>
      <trkpt lat="47.2894" lon="4.98298">
        <ele>385.136</ele>
        <time>2012-06-08T09:44:59Z</time>
      </trkpt>
      <trkpt lat="47.28937" lon="4.9831">
        <ele>383.341</ele>
        <time>2012-06-08T09:45:10Z</time>
      </trkpt>
      <trkpt lat="47.28937" lon="4.9831">
        <ele>382.759</ele>
        <time>2012-06-08T09:45:21Z</time>
      </trkpt>
      <trkpt lat="47.28938" lon="4.98315">
        <ele>382.051</ele>
        <time>2012-06-08T09:45:32Z</time>
      </trkpt>
      <trkpt lat="47.28935" lon="4.98323">
        <ele>382.92</ele>
        <time>2012-06-08T09:45:43Z</time>
      </trkpt>
      <trkpt lat="47.28928" lon="4.98342">
        <ele>381.766</ele>
        <time>2012-06-08T09:45:54Z</time>
      </trkpt>
      <trkpt lat="47.28918" lon="4.98362">
        <ele>378.049</ele>
        <time>2012-06-08T09:46:05Z</time>
      </trkpt>
      <trkpt lat="47.28913" lon="4.98383">
        <ele>378.815</ele>
        <time>2012-06-08T09:46:16Z</time>
      </trkpt>
      <trkpt lat="47.28915" lon="4.9841">
        <ele>378.259</ele>
        <time>2012-06-08T09:46:27Z</time>
      </trkpt>
      <trkpt lat="47.28915" lon="4.98432">
        <ele>378.17</ele>
        <time>2012-06-08T09:46:38Z</time>
      </trkpt>
      <trkpt lat="47.28915" lon="4.98455">
        <ele>378.501</ele>
        <time>2012-06-08T09:46:49Z</time>
      </trkpt>
      <trkpt lat="47.28913" lon="4.98477">
        <ele>379.939</ele>
        <time>2012-06-08T09:47:00Z</time>
      </trkpt>
      <trkpt lat="47.28913" lon="4.985">
        <ele>379.221</ele>
        <time>2012-06-08T09:47:11Z</time>
      </trkpt>
      <trkpt lat="47.28917" lon="4.9852">
        <ele>377.836</ele>
        <time>2012-06-08T09:47:22Z</time>
      </trkpt>
      <trkpt lat="47.28917" lon="4.9853">
        <ele>378.031</ele>
        <time>2012-06-08T09:47:33Z</time>
      </trkpt>
      <trkpt lat="47.28913" lon="4.98543">
        <ele>379.46</ele>
        <time>2012-06-08T09:47:44Z</time>
      </trkpt>
      <trkpt lat="47.28913" lon="4.98552">
        <ele>379.322</ele>
        <time>2012-06-08T09:47:55Z</time>
      </trkpt>
      <trkpt lat="47.28913" lon="4.98573">
        <ele>378.378</ele>
        <time>2012-06-08T09:48:06Z</time>
      </trkpt>
      <trkpt lat="47.28908" lon="4.98598">
        <ele>375.984</ele>
        <time>2012-06-08T09:48:17Z</time>
      </trkpt>
      <trkpt lat="47.28902" lon="4.98628">
        <ele>373.323</ele>
        <time>2012-06-08T09:48:28Z</time>
      </trkpt>
      <trkpt lat="47.28897" lon="4.98655">
        <ele>370.153</ele>
        <time>2012-06-08T09:48:39Z</time>
      </trkpt>
      <trkpt lat="47.28892" lon="4.98682">
        <ele>367.916</ele>
        <time>2012-06-08T09:48:50Z</time>
      </trkpt>
      <trkpt lat="47.28887" lon="4.98702">
        <ele>367.94</ele>
        <time>2012-06-08T09:49:01Z</time>
      </trkpt>
      <trkpt lat="47.28883" lon="4.9872">
        <ele>367.9</ele>
        <time>2012-06-08T09:49:12Z</time>
      </trkpt>
      <trkpt lat="47.2888" lon="4.98725">
        <ele>367.075</ele>
        <time>2012-06-08T09:49:23Z</time>
      </trkpt>
      <trkpt lat="47.28877" lon="4.98733">
        <ele>365.896</ele>
        <time>2012-06-08T09:49:34Z</time>
      </trkpt>
      <trkpt lat="47.2887" lon="4.98748">
        <ele>363.718</ele>
        <time>2012-06-08T09:49:45Z</time>
      </trkpt>
      <trkpt lat="47.28858" lon="4.98778">
        <ele>365.157</ele>
        <time>2012-06-08T09:49:56Z</time>
      </trkpt>
      <trkpt lat="47.28847" lon="4.9881">
        <ele>361.592</ele>
        <time>2012-06-08T09:50:07Z</time>
      </trkpt>
      <trkpt lat="47.28835" lon="4.98837">
        <ele>361.067</ele>
        <time>2012-06-08T09:50:18Z</time>
      </trkpt>
      <trkpt lat="47.28832" lon="4.98865">
        <ele>359.526</ele>
        <time>2012-06-08T09:50:29Z</time>
      </trkpt>
      <trkpt lat="47.28835" lon="4.98883">
        <ele>359.029</ele>
        <time>2012-06-08T09:50:40Z</time>
      </trkpt>
      <trkpt lat="47.28835" lon="4.98887">
        <ele>359.59</ele>
        <time>2012-06-08T09:50:51Z</time>
      </trkpt>
      <trkpt lat="47.2884" lon="4.98888">
        <ele>362.433</ele>
        <time>2012-06-08T09:51:02Z</time>
      </trkpt>
      <trkpt lat="47.28845" lon="4.98897">
        <ele>363.902</ele>
        <time>2012-06-08T09:51:13Z</time>
      </trkpt>
      <trkpt lat="47.28853" lon="4.98905">
        <ele>365.158</ele>
        <time>2012-06-08T09:51:24Z</time>
      </trkpt>
      <trkpt lat="47.28862" lon="4.9891">
        <ele>364.773</ele>
        <time>2012-06-08T09:51:35Z</time>
      </trkpt>
      <trkpt lat="47.2888" lon="4.98935">
        <ele>361.704</ele>
        <time>2012-06-08T09:51:46Z</time>
      </trkpt>
      <trkpt lat="47.289" lon="4.98957">
        <ele>361.468</ele>
        <time>2012-06-08T09:51:57Z</time>
      </trkpt>
      <trkpt lat="47.28915" lon="4.98968">
        <ele>358.813</ele>
        <time>2012-06-08T09:52:08Z</time>
      </trkpt>
      <trkpt lat="47.28923" lon="4.98978">
        <ele>358.737</ele>
        <time>2012-06-08T09:52:19Z</time>
      </trkpt>
      <trkpt lat="47.2893" lon="4.98995">
        <ele>358.934</ele>
        <time>2012-06-08T09:52:30Z</time>
      </trkpt>
      <trkpt lat="47.28933" lon="4.99008">
        <ele>359.342</ele>
        <time>2012-06-08T09:52:41Z</time>
      </trkpt>
      <trkpt lat="47.28945" lon="4.9902">
        <ele>356.098</ele>
        <time>2012-06-08T09:52:52Z</time>
      </trkpt>
      <trkpt lat="47.28958" lon="4.9904">
        <ele>354.946</ele>
        <time>2012-06-08T09:53:03Z</time>
      </trkpt>
      <trkpt lat="47.28968" lon="4.99057">
        <ele>357.918</ele>
        <time>2012-06-08T09:53:14Z</time>
      </trkpt>
      <trkpt lat="47.28977" lon="4.99067">
        <ele>362.142</ele>
        <time>2012-06-08T09:53:25Z</time>
      </trkpt>
      <trkpt lat="47.28993" lon="4.99088">
        <ele>361.319</ele>
        <time>2012-06-08T09:53:36Z</time>
      </trkpt>
      <trkpt lat="47.29005" lon="4.9911">
        <ele>358.752</ele>
        <time>2012-06-08T09:53:47Z</time>
      </trkpt>
      <trkpt lat="47.2902" lon="4.99122">
        <ele>359.322</ele>
        <time>2012-06-08T09:53:58Z</time>
      </trkpt>
      <trkpt lat="47.29028" lon="4.99135">
        <ele>357.596</ele>
        <time>2012-06-08T09:54:09Z</time>
      </trkpt>
      <trkpt lat="47.29028" lon="4.99135">
        <ele>357.231</ele>
        <time>2012-06-08T09:54:20Z</time>
      </trkpt>
      <trkpt lat="47.29028" lon="4.99135">
        <ele>357.231</ele>
        <time>2012-06-08T09:54:31Z</time>
      </trkpt>
      <trkpt lat="47.2903" lon="4.99137">
        <ele>356.634</ele>
        <time>2012-06-08T09:54:42Z</time>
      </trkpt>
      <trkpt lat="47.2903" lon="4.99137">
        <ele>356.914</ele>
        <time>2012-06-08T09:54:53Z</time>
      </trkpt>
      <trkpt lat="47.2903" lon="4.99137">
        <ele>356.914</ele>
        <time>2012-06-08T09:55:04Z</time>
      </trkpt>
      <trkpt lat="47.2903" lon="4.99137">
        <ele>357.07</ele>
        <time>2012-06-08T09:55:15Z</time>
      </trkpt>
      <trkpt lat="47.2903" lon="4.99137">
        <ele>356.662</ele>
        <time>2012-06-08T09:55:26Z</time>
      </trkpt>
      <trkpt lat="47.29033" lon="4.99147">
        <ele>355.242</ele>
        <time>2012-06-08T09:55:37Z</time>
      </trkpt>
      <trkpt lat="47.29037" lon="4.99168">
        <ele>353.044</ele>
        <time>2012-06-08T09:55:48Z</time>
      </trkpt>
      <trkpt lat="47.29037" lon="4.99175">
        <ele>352.294</ele>
        <time>2012-06-08T09:55:59Z</time>
      </trkpt>
      <trkpt lat="47.29033" lon="4.99183">
        <ele>352.54</ele>
        <time>2012-06-08T09:56:10Z</time>
      </trkpt>
      <trkpt lat="47.29033" lon="4.99207">
        <ele>350.81</ele>
        <time>2012-06-08T09:56:21Z</time>
      </trkpt>
      <trkpt lat="47.2904" lon="4.99233">
        <ele>349.707</ele>
        <time>2012-06-08T09:56:32Z</time>
      </trkpt>
      <trkpt lat="47.29043" lon="4.99263">
        <ele>348.38</ele>
        <time>2012-06-08T09:56:43Z</time>
      </trkpt>
      <trkpt lat="47.29047" lon="4.9929">
        <ele>346.578</ele>
        <time>2012-06-08T09:56:54Z</time>
      </trkpt>
      <trkpt lat="47.29048" lon="4.9931">
        <ele>347.206</ele>
        <time>2012-06-08T09:57:05Z</time>
      </trkpt>
      <trkpt lat="47.2905" lon="4.99327">
        <ele>345.785</ele>
        <time>2012-06-08T09:57:16Z</time>
      </trkpt>
      <trkpt lat="47.29052" lon="4.99347">
        <ele>344.451</ele>
        <time>2012-06-08T09:57:27Z</time>
      </trkpt>
      <trkpt lat="47.29055" lon="4.9936">
        <ele>344.005</ele>
        <time>2012-06-08T09:57:38Z</time>
      </trkpt>
      <trkpt lat="47.29052" lon="4.99372">
        <ele>344.285</ele>
        <time>2012-06-08T09:57:49Z</time>
      </trkpt>
      <trkpt lat="47.29045" lon="4.99395">
        <ele>343.005</ele>
        <time>2012-06-08T09:58:00Z</time>
      </trkpt>
      <trkpt lat="47.29048" lon="4.9943">
        <ele>340.236</ele>
        <time>2012-06-08T09:58:11Z</time>
      </trkpt>
      <trkpt lat="47.29055" lon="4.99462">
        <ele>338.79</ele>
        <time>2012-06-08T09:58:22Z</time>
      </trkpt>
      <trkpt lat="47.29062" lon="4.9949">
        <ele>337.258</ele>
        <time>2012-06-08T09:58:33Z</time>
      </trkpt>
      <trkpt lat="47.29065" lon="4.99495">
        <ele>337.027</ele>
        <time>2012-06-08T09:58:44Z</time>
      </trkpt>
      <trkpt lat="47.29073" lon="4.99507">
        <ele>337.769</ele>
        <time>2012-06-08T09:58:55Z</time>
      </trkpt>
      <trkpt lat="47.29083" lon="4.9952">
        <ele>335.735</ele>
        <time>2012-06-08T09:59:06Z</time>
      </trkpt>
      <trkpt lat="47.29092" lon="4.9954">
        <ele>333.96</ele>
        <time>2012-06-08T09:59:17Z</time>
      </trkpt>
      <trkpt lat="47.29097" lon="4.99547">
        <ele>333.459</ele>
        <time>2012-06-08T09:59:28Z</time>
      </trkpt>
      <trkpt lat="47.29107" lon="4.99555">
        <ele>332.016</ele>
        <time>2012-06-08T09:59:39Z</time>
      </trkpt>
      <trkpt lat="47.2912" lon="4.9957">
        <ele>332.274</ele>
        <time>2012-06-08T09:59:50Z</time>
      </trkpt>
      <trkpt lat="47.29135" lon="4.9958">
        <ele>333.524</ele>
        <time>2012-06-08T10:00:01Z</time>
      </trkpt>
      <trkpt lat="47.29143" lon="4.996">
        <ele>330.473</ele>
        <time>2012-06-08T10:00:12Z</time>
      </trkpt>
      <trkpt lat="47.29153" lon="4.99615">
        <ele>332.566</ele>
        <time>2012-06-08T10:00:23Z</time>
      </trkpt>
      <trkpt lat="47.29162" lon="4.99632">
        <ele>330.486</ele>
        <time>2012-06-08T10:00:34Z</time>
      </trkpt>
      <trkpt lat="47.29175" lon="4.99647">
        <ele>327.182</ele>
        <time>2012-06-08T10:00:45Z</time>
      </trkpt>
      <trkpt lat="47.29195" lon="4.99662">
        <ele>328.9</ele>
        <time>2012-06-08T10:00:56Z</time>
      </trkpt>
      <trkpt lat="47.29208" lon="4.99668">
        <ele>330.125</ele>
        <time>2012-06-08T10:01:07Z</time>
      </trkpt>
      <trkpt lat="47.2922" lon="4.9967">
        <ele>325.955</ele>
        <time>2012-06-08T10:01:18Z</time>
      </trkpt>
      <trkpt lat="47.29237" lon="4.99685">
        <ele>323.085</ele>
        <time>2012-06-08T10:01:29Z</time>
      </trkpt>
      <trkpt lat="47.29247" lon="4.99687">
        <ele>320.802</ele>
        <time>2012-06-08T10:01:40Z</time>
      </trkpt>
      <trkpt lat="47.29248" lon="4.99688">
        <ele>321.051</ele>
        <time>2012-06-08T10:01:51Z</time>
      </trkpt>
      <trkpt lat="47.29253" lon="4.99698">
        <ele>321.851</ele>
        <time>2012-06-08T10:02:02Z</time>
      </trkpt>
      <trkpt lat="47.29255" lon="4.99712">
        <ele>322.721</ele>
        <time>2012-06-08T10:02:13Z</time>
      </trkpt>
      <trkpt lat="47.29252" lon="4.99727">
        <ele>324.525</ele>
        <time>2012-06-08T10:02:24Z</time>
      </trkpt>
      <trkpt lat="47.29245" lon="4.99737">
        <ele>324.163</ele>
        <time>2012-06-08T10:02:35Z</time>
      </trkpt>
      <trkpt lat="47.29245" lon="4.9975">
        <ele>326.558</ele>
        <time>2012-06-08T10:02:46Z</time>
      </trkpt>
      <trkpt lat="47.29243" lon="4.99757">
        <ele>327.68</ele>
        <time>2012-06-08T10:02:57Z</time>
      </trkpt>
      <trkpt lat="47.2924" lon="4.99772">
        <ele>330.084</ele>
        <time>2012-06-08T10:03:08Z</time>
      </trkpt>
      <trkpt lat="47.29237" lon="4.99777">
        <ele>328.585</ele>
        <time>2012-06-08T10:03:19Z</time>
      </trkpt>
      <trkpt lat="47.29233" lon="4.99792">
        <ele>329.189</ele>
        <time>2012-06-08T10:03:30Z</time>
      </trkpt>
      <trkpt lat="47.29237" lon="4.9982">
        <ele>329.875</ele>
        <time>2012-06-08T10:03:41Z</time>
      </trkpt>
      <trkpt lat="47.29235" lon="4.99842">
        <ele>328.924</ele>
        <time>2012-06-08T10:03:52Z</time>
      </trkpt>
      <trkpt lat="47.2924" lon="4.99855">
        <ele>330.1</ele>
        <time>2012-06-08T10:04:03Z</time>
      </trkpt>
      <trkpt lat="47.29235" lon="4.99887">
        <ele>327.965</ele>
        <time>2012-06-08T10:04:14Z</time>
      </trkpt>
      <trkpt lat="47.2923" lon="4.99912">
        <ele>328.499</ele>
        <time>2012-06-08T10:04:25Z</time>
      </trkpt>
      <trkpt lat="47.29223" lon="4.99923">
        <ele>325.24</ele>
        <time>2012-06-08T10:04:36Z</time>
      </trkpt>
      <trkpt lat="47.29225" lon="4.99945">
        <ele>326.837</ele>
        <time>2012-06-08T10:04:47Z</time>
      </trkpt>
      <trkpt lat="47.29217" lon="4.9995">
        <ele>325.36</ele>
        <time>2012-06-08T10:04:58Z</time>
      </trkpt>
      <trkpt lat="47.29218" lon="4.99973">
        <ele>323.297</ele>
        <time>2012-06-08T10:05:09Z</time>
      </trkpt>
      <trkpt lat="47.29217" lon="4.99993">
        <ele>327.142</ele>
        <time>2012-06-08T10:05:20Z</time>
      </trkpt>
      <trkpt lat="47.29207" lon="5.00005">
        <ele>323.414</ele>
        <time>2012-06-08T10:05:31Z</time>
      </trkpt>
      <trkpt lat="47.29207" lon="5.0002">
        <ele>318.876</ele>
        <time>2012-06-08T10:05:42Z</time>
      </trkpt>
      <trkpt lat="47.29207" lon="5.00045">
        <ele>318.595</ele>
        <time>2012-06-08T10:05:53Z</time>
      </trkpt>
      <trkpt lat="47.29203" lon="5.00077">
        <ele>323.758</ele>
        <time>2012-06-08T10:06:04Z</time>
      </trkpt>
      <trkpt lat="47.29207" lon="5.001">
        <ele>325.049</ele>
        <time>2012-06-08T10:06:15Z</time>
      </trkpt>
      <trkpt lat="47.29193" lon="5.00125">
        <ele>321.965</ele>
        <time>2012-06-08T10:06:26Z</time>
      </trkpt>
      <trkpt lat="47.29188" lon="5.0014">
        <ele>306.977</ele>
        <time>2012-06-08T10:06:37Z</time>
      </trkpt>
      <trkpt lat="47.29195" lon="5.00152">
        <ele>301.221</ele>
        <time>2012-06-08T10:06:48Z</time>
      </trkpt>
      <trkpt lat="47.29198" lon="5.0016">
        <ele>303.953</ele>
        <time>2012-06-08T10:06:59Z</time>
      </trkpt>
      <trkpt lat="47.2921" lon="5.0018">
        <ele>308.331</ele>
        <time>2012-06-08T10:07:10Z</time>
      </trkpt>
      <trkpt lat="47.29215" lon="5.00203">
        <ele>309.685</ele>
        <time>2012-06-08T10:07:21Z</time>
      </trkpt>
      <trkpt lat="47.29212" lon="5.00232">
        <ele>311.828</ele>
        <time>2012-06-08T10:07:32Z</time>
      </trkpt>
      <trkpt lat="47.292" lon="5.00253">
        <ele>311.414</ele>
        <time>2012-06-08T10:07:43Z</time>
      </trkpt>
      <trkpt lat="47.2919" lon="5.00273">
        <ele>306.237</ele>
        <time>2012-06-08T10:07:54Z</time>
      </trkpt>
      <trkpt lat="47.29185" lon="5.00302">
        <ele>306.384</ele>
        <time>2012-06-08T10:08:05Z</time>
      </trkpt>
      <trkpt lat="47.2919" lon="5.00327">
        <ele>310.49</ele>
        <time>2012-06-08T10:08:16Z</time>
      </trkpt>
      <trkpt lat="47.2919" lon="5.00327">
        <ele>310.49</ele>
        <time>2012-06-08T10:08:27Z</time>
      </trkpt>
      <trkpt lat="47.2919" lon="5.00338">
        <ele>310.243</ele>
        <time>2012-06-08T10:08:38Z</time>
      </trkpt>
      <trkpt lat="47.2919" lon="5.00345">
        <ele>307.312</ele>
        <time>2012-06-08T10:08:49Z</time>
      </trkpt>
      <trkpt lat="47.292" lon="5.0036">
        <ele>307.161</ele>
        <time>2012-06-08T10:09:00Z</time>
      </trkpt>
      <trkpt lat="47.2921" lon="5.00382">
        <ele>306.127</ele>
        <time>2012-06-08T10:09:11Z</time>
      </trkpt>
      <trkpt lat="47.29202" lon="5.00402">
        <ele>306.213</ele>
        <time>2012-06-08T10:09:22Z</time>
      </trkpt>
      <trkpt lat="47.29197" lon="5.00417">
        <ele>310.076</ele>
        <time>2012-06-08T10:09:33Z</time>
      </trkpt>
      <trkpt lat="47.29212" lon="5.00437">
        <ele>314.151</ele>
        <time>2012-06-08T10:09:44Z</time>
      </trkpt>
      <trkpt lat="47.29225" lon="5.00457">
        <ele>318.985</ele>
        <time>2012-06-08T10:09:55Z</time>
      </trkpt>
      <trkpt lat="47.29227" lon="5.00468">
        <ele>318.469</ele>
        <time>2012-06-08T10:10:06Z</time>
      </trkpt>
      <trkpt lat="47.2922" lon="5.00485">
        <ele>311.91</ele>
        <time>2012-06-08T10:10:17Z</time>
      </trkpt>
      <trkpt lat="47.29223" lon="5.00507">
        <ele>304.34</ele>
        <time>2012-06-08T10:10:28Z</time>
      </trkpt>
      <trkpt lat="47.29227" lon="5.00533">
        <ele>299.992</ele>
        <time>2012-06-08T10:10:39Z</time>
      </trkpt>
      <trkpt lat="47.29227" lon="5.00555">
        <ele>295.932</ele>
        <time>2012-06-08T10:10:50Z</time>
      </trkpt>
      <trkpt lat="47.29222" lon="5.00555">
        <ele>292.096</ele>
        <time>2012-06-08T10:11:01Z</time>
      </trkpt>
      <trkpt lat="47.29228" lon="5.00568">
        <ele>290.134</ele>
        <time>2012-06-08T10:11:12Z</time>
      </trkpt>
    </trkseg>
  </trk>
</gpx>